Observation data for Guadalupe Mtns Park on 12/09/2018      Previous  Date  Next       Current Mesonet Observations  Soil Data  Daily Summary Page  Observations in Plain Language
KGU1 090600Z 30018KT 07/02 A3029 RMK A01 T00700016  RH  070%=      5-min Rain = 0
KGU1 090601Z 29020KT 07/02 A3028 RMK A01 T00700018  RH  071%=      5-min Rain = 0
KGU1 090602Z 30018KT 07/02 A3028 RMK A01 T00700018  RH  071%=      5-min Rain = 0
KGU1 090603Z 30015KT 07/02 A3028 RMK A01 T00690018  RH  071%=      5-min Rain = 0
KGU1 090604Z 30016KT 07/02 A3029 RMK A01 T00670017  RH  072%=      5-min Rain = 0
KGU1 090605Z 30019KT 07/02 A3029 RMK A01 T00670018  RH  072%=      5-min Rain = 0
KGU1 090606Z 30016KT 07/02 A3029 RMK A01 T00690019  RH  072%=      5-min Rain = 0
KGU1 090607Z 29017KT 07/02 A3029 RMK A01 T00680018  RH  072%=      5-min Rain = 0
KGU1 090608Z 30019KT 07/02 A3029 RMK A01 T00670018  RH  072%=      5-min Rain = 0
KGU1 090609Z 30019KT 07/02 A3029 RMK A01 T00680019  RH  072%=      5-min Rain = 0
KGU1 090610Z 30016KT 07/02 A3029 RMK A01 T00680019  RH  072%=      5-min Rain = 0
KGU1 090611Z 30016G21KT 07/02 A3029 RMK A01 T00680019  RH  072%=      5-min Rain = 0
KGU1 090612Z 30015KT 07/02 A3029 RMK A01 T00680019  RH  072%=      5-min Rain = 0
KGU1 090613Z 30016KT 07/02 A3029 RMK A01 T00670019  RH  072%=      5-min Rain = 0
KGU1 090614Z 31017KT 07/02 A3029 RMK A01 T00670019  RH  072%=      5-min Rain = 0
KGU1 090615Z 30015KT 07/02 A3029 RMK A01 T00680019  RH  072%=      5-min Rain = 0
KGU1 090616Z 30016KT 07/02 A3029 RMK A01 T00670019  RH  072%=      5-min Rain = 0
KGU1 090617Z 31017KT 07/02 A3028 RMK A01 T00670019  RH  072%=      5-min Rain = 0
KGU1 090618Z 30016KT 07/02 A3029 RMK A01 T00680019  RH  072%=      5-min Rain = 0
KGU1 090619Z 30015KT 07/02 A3028 RMK A01 T00680019  RH  072%=      5-min Rain = 0
KGU1 090620Z 30015KT 07/02 A3028 RMK A01 T00670019  RH  073%=      5-min Rain = 0
KGU1 090621Z 30015KT 07/02 A3028 RMK A01 T00650018  RH  073%=      5-min Rain = 0
KGU1 090622Z 30014KT 07/02 A3028 RMK A01 T00660018  RH  073%=      5-min Rain = 0
KGU1 090623Z 30016KT 07/02 A3029 RMK A01 T00660019  RH  073%=      5-min Rain = 0
KGU1 090624Z 30016KT 07/02 A3029 RMK A01 T00680018  RH  072%=      5-min Rain = 0
KGU1 090625Z 31015KT 07/02 A3029 RMK A01 T00680018  RH  071%=      5-min Rain = 0
KGU1 090626Z 30014KT 07/02 A3029 RMK A01 T00670017  RH  071%=      5-min Rain = 0
KGU1 090627Z 30017KT 07/02 A3029 RMK A01 T00660018  RH  072%=      5-min Rain = 0
KGU1 090628Z 30016KT 07/02 A3029 RMK A01 T00680018  RH  071%=      5-min Rain = 0
KGU1 090629Z 30015KT 07/02 A3029 RMK A01 T00690018  RH  071%=      5-min Rain = 0
KGU1 090630Z 30015KT 07/02 A3029 RMK A01 T00700018  RH  071%=      5-min Rain = 0
KGU1 090631Z 30014KT 07/02 A3029 RMK A01 T00680017  RH  071%=      5-min Rain = 0
KGU1 090632Z 29016KT 07/02 A3029 RMK A01 T00670017  RH  072%=      5-min Rain = 0
KGU1 090633Z 29015G20KT 07/02 A3029 RMK A01 T00680018  RH  071%=      5-min Rain = 0
KGU1 090634Z 29017KT 07/02 A3029 RMK A01 T00680018  RH  071%=      5-min Rain = 0
KGU1 090635Z 30016KT 07/02 A3029 RMK A01 T00690017  RH  071%=      5-min Rain = 0
KGU1 090636Z 29016KT 07/02 A3029 RMK A01 T00690018  RH  071%=      5-min Rain = 0
KGU1 090637Z 30015KT 07/02 A3029 RMK A01 T00700018  RH  071%=      5-min Rain = 0
KGU1 090638Z 30015KT 07/02 A3029 RMK A01 T00710018  RH  070%=      5-min Rain = 0
KGU1 090639Z 30014KT 07/02 A3029 RMK A01 T00710017  RH  070%=      5-min Rain = 0
KGU1 090640Z 29013KT 07/02 A3029 RMK A01 T00700017  RH  070%=      5-min Rain = 0
KGU1 090641Z 29012KT 07/02 A3029 RMK A01 T00690017  RH  071%=      5-min Rain = 0
KGU1 090642Z 29011KT 07/02 A3029 RMK A01 T00670017  RH  072%=      5-min Rain = 0
KGU1 090643Z 29011KT 06/02 A3029 RMK A01 T00640017  RH  073%=      5-min Rain = 0
KGU1 090644Z 29011KT 06/02 A3029 RMK A01 T00630016  RH  073%=      5-min Rain = 0
KGU1 090645Z 29010KT 06/02 A3029 RMK A01 T00630017  RH  073%=      5-min Rain = 0
KGU1 090646Z 29010KT 06/02 A3029 RMK A01 T00630016  RH  073%=      5-min Rain = 0
KGU1 090647Z 29009KT 06/02 A3029 RMK A01 T00610015  RH  073%=      5-min Rain = 0
KGU1 090648Z 30010KT 06/01 A3029 RMK A01 T00580014  RH  075%=      5-min Rain = 0
KGU1 090649Z 30009KT 06/02 A3029 RMK A01 T00580015  RH  075%=      5-min Rain = 0
KGU1 090650Z 30009KT 06/01 A3029 RMK A01 T00600014  RH  073%=      5-min Rain = 0
KGU1 090651Z 30008KT 06/01 A3029 RMK A01 T00640014  RH  071%=      5-min Rain = 0
KGU1 090652Z 28007KT 06/01 A3029 RMK A01 T00640013  RH  071%=      5-min Rain = 0
KGU1 090653Z 28007KT 06/01 A3029 RMK A01 T00620014  RH  072%=      5-min Rain = 0
KGU1 090654Z 29008KT 06/01 A3029 RMK A01 T00590013  RH  073%=      5-min Rain = 0
KGU1 090655Z 28007KT 06/01 A3029 RMK A01 T00590013  RH  074%=      5-min Rain = 0
KGU1 090656Z 28007KT 06/01 A3029 RMK A01 T00580013  RH  074%=      5-min Rain = 0
KGU1 090657Z 28007KT 06/01 A3029 RMK A01 T00570013  RH  074%=      5-min Rain = 0
KGU1 090658Z 27007KT 06/01 A3029 RMK A01 T00590013  RH  073%=      5-min Rain = 0
KGU1 090659Z 28006KT 06/01 A3029 RMK A01 T00620014  RH  072%=      5-min Rain = 0
KGU1 090700Z 30006KT 06/01 A3029 RMK A01 T00640013  RH  071%=      5-min Rain = 0
KGU1 090701Z 29006KT 07/01 A3029 RMK A01 T00660013  RH  070%=      5-min Rain = 0
KGU1 090702Z 30008KT 07/01 A3029 RMK A01 T00650013  RH  070%=      5-min Rain = 0
KGU1 090703Z 30009KT 06/01 A3029 RMK A01 T00640013  RH  071%=      5-min Rain = 0
KGU1 090704Z 31007KT 07/01 A3029 RMK A01 T00670013  RH  069%=      5-min Rain = 0
KGU1 090705Z 30005KT 07/01 A3029 RMK A01 T00720013  RH  067%=      5-min Rain = 0
KGU1 090706Z 27004KT 07/01 A3029 RMK A01 T00740013  RH  066%=      5-min Rain = 0
KGU1 090707Z 28004KT 07/01 A3029 RMK A01 T00740013  RH  066%=      5-min Rain = 0
KGU1 090708Z 26002KT 07/01 A3029 RMK A01 T00720013  RH  067%=      5-min Rain = 0
KGU1 090709Z 23001KT 07/01 A3029 RMK A01 T00710012  RH  067%=      5-min Rain = 0
KGU1 090710Z 23001KT 07/01 A3029 RMK A01 T00700012  RH  067%=      5-min Rain = 0
KGU1 090711Z 29000KT 07/01 A3029 RMK A01 T00680011  RH  068%=      5-min Rain = 0
KGU1 090712Z 25001KT 07/01 A3029 RMK A01 T00680012  RH  068%=      5-min Rain = 0
KGU1 090713Z 22002KT 07/01 A3029 RMK A01 T00680012  RH  068%=      5-min Rain = 0
KGU1 090714Z 25003KT 07/01 A3029 RMK A01 T00680012  RH  068%=      5-min Rain = 0
KGU1 090715Z 26003KT 07/01 A3029 RMK A01 T00690012  RH  068%=      5-min Rain = 0
KGU1 090716Z 27003KT 07/01 A3029 RMK A01 T00680012  RH  068%=      5-min Rain = 0
KGU1 090717Z 29003KT 07/01 A3029 RMK A01 T00680012  RH  068%=      5-min Rain = 0
KGU1 090718Z 32001KT 07/01 A3029 RMK A01 T00710012  RH  067%=      5-min Rain = 0
KGU1 090719Z 13001KT 07/01 A3029 RMK A01 T00720011  RH  066%=      5-min Rain = 0
KGU1 090720Z 15001KT 07/01 A3029 RMK A01 T00720011  RH  066%=      5-min Rain = 0
KGU1 090721Z 21002KT 07/01 A3029 RMK A01 T00710010  RH  066%=      5-min Rain = 0
KGU1 090722Z 20002KT 07/01 A3029 RMK A01 T00700011  RH  067%=      5-min Rain = 0
KGU1 090723Z 24003KT 07/01 A3029 RMK A01 T00700012  RH  067%=      5-min Rain = 0
KGU1 090724Z 24003KT 07/01 A3029 RMK A01 T00680010  RH  067%=      5-min Rain = 0
KGU1 090725Z 23003KT 07/01 A3029 RMK A01 T00670011  RH  068%=      5-min Rain = 0
KGU1 090726Z 25002KT 07/01 A3029 RMK A01 T00660011  RH  069%=      5-min Rain = 0
KGU1 090727Z 25002KT 07/01 A3029 RMK A01 T00650010  RH  069%=      5-min Rain = 0
KGU1 090728Z 26003KT 06/01 A3029 RMK A01 T00640010  RH  069%=      5-min Rain = 0
KGU1 090729Z 25002KT 06/01 A3029 RMK A01 T00640009  RH  069%=      5-min Rain = 0
KGU1 090730Z 24001KT 07/01 A3029 RMK A01 T00650010  RH  069%=      5-min Rain = 0
KGU1 090731Z 24002KT 07/01 A3029 RMK A01 T00650010  RH  069%=      5-min Rain = 0
KGU1 090732Z 26003KT 07/01 A3029 RMK A01 T00650010  RH  069%=      5-min Rain = 0
KGU1 090733Z 27002KT 06/01 A3029 RMK A01 T00640010  RH  069%=      5-min Rain = 0
KGU1 090734Z 25000KT 07/01 A3029 RMK A01 T00650010  RH  069%=      5-min Rain = 0
KGU1 090735Z 34002KT 06/01 A3029 RMK A01 T00620008  RH  069%=      5-min Rain = 0
KGU1 090736Z 34003KT 06/01 A3029 RMK A01 T00570005  RH  070%=      5-min Rain = 0
KGU1 090737Z 36001KT 05/01 A3029 RMK A01 T00540006  RH  072%=      5-min Rain = 0
KGU1 090738Z 25000KT 05/01 A3029 RMK A01 T00510005  RH  073%=      5-min Rain = 0
KGU1 090739Z 28001KT 05/01 A3029 RMK A01 T00500007  RH  075%=      5-min Rain = 0
KGU1 090740Z 28000KT 05/01 A3029 RMK A01 T00540010  RH  074%=      5-min Rain = 0
KGU1 090741Z 35000KT 06/01 A3029 RMK A01 T00570010  RH  073%=      5-min Rain = 0
KGU1 090742Z 34000KT 06/01 A3029 RMK A01 T00580009  RH  072%=      5-min Rain = 0
KGU1 090743Z 29000KT 06/01 A3029 RMK A01 T00580009  RH  072%=      5-min Rain = 0
KGU1 090744Z 25002KT 06/01 A3029 RMK A01 T00590009  RH  071%=      5-min Rain = 0
KGU1 090745Z 24001KT 06/01 A3029 RMK A01 T00590010  RH  072%=      5-min Rain = 0
KGU1 090746Z 22000KT 06/01 A3029 RMK A01 T00600011  RH  072%=      5-min Rain = 0
KGU1 090747Z 12000KT 06/01 A3029 RMK A01 T00620012  RH  071%=      5-min Rain = 0
KGU1 090748Z 00000KT 06/01 A3029 RMK A01 T00640012  RH  070%=      5-min Rain = 0
KGU1 090749Z 00000KT 07/01 A3029 RMK A01 T00650012  RH  070%=      5-min Rain = 0
KGU1 090750Z 26001KT 07/01 A3029 RMK A01 T00660011  RH  069%=      5-min Rain = 0
KGU1 090751Z 25003KT 07/01 A3029 RMK A01 T00660011  RH  069%=      5-min Rain = 0
KGU1 090752Z 22003KT 07/01 A3029 RMK A01 T00660012  RH  069%=      5-min Rain = 0
KGU1 090753Z 27003KT 07/01 A3029 RMK A01 T00660012  RH  069%=      5-min Rain = 0
KGU1 090754Z 27004KT 07/01 A3029 RMK A01 T00660011  RH  069%=      5-min Rain = 0
KGU1 090755Z 26003KT 07/01 A3029 RMK A01 T00670012  RH  069%=      5-min Rain = 0
KGU1 090756Z 29003KT 07/01 A3029 RMK A01 T00700013  RH  068%=      5-min Rain = 0
KGU1 090757Z 30002KT 07/01 A3029 RMK A01 T00730012  RH  066%=      5-min Rain = 0
KGU1 090758Z 28002KT 08/01 A3029 RMK A01 T00750012  RH  065%=      5-min Rain = 0
KGU1 090759Z 27003KT 08/01 A3029 RMK A01 T00760012  RH  065%=      5-min Rain = 0
KGU1 090800Z 28003KT 08/01 A3029 RMK A01 T00760012  RH  065%=      5-min Rain = 0
KGU1 090801Z 30001KT 08/01 A3029 RMK A01 T00770012  RH  064%=      5-min Rain = 0
KGU1 090802Z 24002KT 08/01 A3029 RMK A01 T00760012  RH  065%=      5-min Rain = 0
KGU1 090803Z 26004KT 07/01 A3029 RMK A01 T00730011  RH  066%=      5-min Rain = 0
KGU1 090804Z 26003KT 07/01 A3029 RMK A01 T00710010  RH  066%=      5-min Rain = 0
KGU1 090805Z 25002KT 07/01 A3029 RMK A01 T00670009  RH  067%=      5-min Rain = 0
KGU1 090806Z 24002KT 07/01 A3029 RMK A01 T00680010  RH  067%=      5-min Rain = 0
KGU1 090807Z 27003KT 07/01 A3029 RMK A01 T00710011  RH  066%=      5-min Rain = 0
KGU1 090808Z 26004KT 07/01 A3029 RMK A01 T00720010  RH  066%=      5-min Rain = 0
KGU1 090809Z 28005KT 07/01 A3029 RMK A01 T00710010  RH  066%=      5-min Rain = 0
KGU1 090810Z 29004KT 07/01 A3029 RMK A01 T00680009  RH  067%=      5-min Rain = 0
KGU1 090811Z 28005KT 07/01 A3029 RMK A01 T00650008  RH  068%=      5-min Rain = 0
KGU1 090812Z 29005KT 06/01 A3029 RMK A01 T00640009  RH  069%=      5-min Rain = 0
KGU1 090813Z 31005KT 07/01 A3029 RMK A01 T00660011  RH  069%=      5-min Rain = 0
KGU1 090814Z 24003KT 07/01 A3029 RMK A01 T00700012  RH  067%=      5-min Rain = 0
KGU1 090815Z 20001KT 07/01 A3029 RMK A01 T00700011  RH  067%=      5-min Rain = 0
KGU1 090816Z 23002KT 07/01 A3029 RMK A01 T00710011  RH  067%=      5-min Rain = 0
KGU1 090817Z 23002KT 07/01 A3029 RMK A01 T00710011  RH  066%=      5-min Rain = 0
KGU1 090818Z 23003KT 07/01 A3029 RMK A01 T00710011  RH  067%=      5-min Rain = 0
KGU1 090819Z 24002KT 07/01 A3029 RMK A01 T00720012  RH  066%=      5-min Rain = 0
KGU1 090820Z 25002KT 07/01 A3029 RMK A01 T00740011  RH  065%=      5-min Rain = 0
KGU1 090821Z 31005KT 07/01 A3029 RMK A01 T00740011  RH  065%=      5-min Rain = 0
KGU1 090822Z 29008KT 07/01 A3028 RMK A01 T00730010  RH  065%=      5-min Rain = 0
KGU1 090823Z 26006KT 07/01 A3028 RMK A01 T00710010  RH  066%=      5-min Rain = 0
KGU1 090824Z 21006KT 07/01 A3028 RMK A01 T00680010  RH  068%=      5-min Rain = 0
KGU1 090825Z 19008KT 07/01 A3028 RMK A01 T00650010  RH  069%=      5-min Rain = 0
KGU1 090826Z 19007KT 07/01 A3028 RMK A01 T00690011  RH  067%=      5-min Rain = 0
KGU1 090827Z 17007KT 07/01 A3028 RMK A01 T00730010  RH  065%=      5-min Rain = 0
KGU1 090828Z 19008KT 07/01 A3028 RMK A01 T00740010  RH  065%=      5-min Rain = 0
KGU1 090829Z 20007KT 07/01 A3028 RMK A01 T00730009  RH  065%=      5-min Rain = 0
KGU1 090830Z 20005KT 07/01 A3028 RMK A01 T00720009  RH  065%=      5-min Rain = 0
KGU1 090831Z 20004KT 07/01 A3028 RMK A01 T00720010  RH  065%=      5-min Rain = 0
KGU1 090832Z 24002KT 07/01 A3028 RMK A01 T00720010  RH  065%=      5-min Rain = 0
KGU1 090833Z 26002KT 07/01 A3028 RMK A01 T00720010  RH  066%=      5-min Rain = 0
KGU1 090834Z 26003KT 07/01 A3028 RMK A01 T00720010  RH  066%=      5-min Rain = 0
KGU1 090835Z 27004KT 07/01 A3028 RMK A01 T00710009  RH  066%=      5-min Rain = 0
KGU1 090836Z 23003KT 07/01 A3028 RMK A01 T00720010  RH  066%=      5-min Rain = 0
KGU1 090837Z 22001KT 07/01 A3028 RMK A01 T00720010  RH  066%=      5-min Rain = 0
KGU1 090838Z 25000KT 07/01 A3028 RMK A01 T00700009  RH  066%=      5-min Rain = 0
KGU1 090839Z 02001KT 07/01 A3028 RMK A01 T00690010  RH  067%=      5-min Rain = 0
KGU1 090840Z 34003KT 07/01 A3028 RMK A01 T00680010  RH  067%=      5-min Rain = 0
KGU1 090841Z 22001KT 07/01 A3028 RMK A01 T00660008  RH  067%=      5-min Rain = 0
KGU1 090842Z 24002KT 06/01 A3028 RMK A01 T00640008  RH  068%=      5-min Rain = 0
KGU1 090843Z 28001KT 06/01 A3028 RMK A01 T00630008  RH  069%=      5-min Rain = 0
KGU1 090844Z 26003KT 06/01 A3028 RMK A01 T00630008  RH  068%=      5-min Rain = 0
KGU1 090845Z 30005KT 06/01 A3028 RMK A01 T00640008  RH  068%=      5-min Rain = 0
KGU1 090846Z 29004KT 06/01 A3028 RMK A01 T00630008  RH  069%=      5-min Rain = 0
KGU1 090847Z 30002KT 07/01 A3028 RMK A01 T00650010  RH  069%=      5-min Rain = 0
KGU1 090848Z 20001KT 07/01 A3028 RMK A01 T00690013  RH  068%=      5-min Rain = 0
KGU1 090849Z 18001KT 07/01 A3028 RMK A01 T00700009  RH  066%=      5-min Rain = 0
KGU1 090850Z 20002KT 07/01 A3028 RMK A01 T00700009  RH  066%=      5-min Rain = 0
KGU1 090851Z 18002KT 07/01 A3028 RMK A01 T00690008  RH  066%=      5-min Rain = 0
KGU1 090852Z 19003KT 07/01 A3028 RMK A01 T00690008  RH  066%=      5-min Rain = 0
KGU1 090853Z 18003KT 07/01 A3028 RMK A01 T00690008  RH  066%=      5-min Rain = 0
KGU1 090854Z 21005KT 07/01 A3028 RMK A01 T00690010  RH  067%=      5-min Rain = 0
KGU1 090855Z 24006KT 07/01 A3028 RMK A01 T00690011  RH  068%=      5-min Rain = 0
KGU1 090856Z 23005KT 07/01 A3028 RMK A01 T00710013  RH  068%=      5-min Rain = 0
KGU1 090857Z 23004KT 07/01 A3028 RMK A01 T00700013  RH  068%=      5-min Rain = 0
KGU1 090858Z 20005KT 07/01 A3028 RMK A01 T00680012  RH  068%=      5-min Rain = 0
KGU1 090859Z 18005KT 07/01 A3028 RMK A01 T00650009  RH  069%=      5-min Rain = 0
KGU1 090900Z 20005KT 06/01 A3027 RMK A01 T00600008  RH  070%=      5-min Rain = 0
KGU1 090901Z 20006KT 06/01 A3027 RMK A01 T00570008  RH  072%=      5-min Rain = 0
KGU1 090902Z 18007KT 06/01 A3027 RMK A01 T00570009  RH  072%=      5-min Rain = 0
KGU1 090903Z 17005KT 06/01 A3027 RMK A01 T00580011  RH  073%=      5-min Rain = 0
KGU1 090904Z 21005KT 06/01 A3027 RMK A01 T00590011  RH  073%=      5-min Rain = 0
KGU1 090905Z 21005KT 06/01 A3027 RMK A01 T00580011  RH  073%=      5-min Rain = 0
KGU1 090906Z 21006KT 06/01 A3027 RMK A01 T00560011  RH  074%=      5-min Rain = 0
KGU1 090907Z 20006KT 05/01 A3027 RMK A01 T00530010  RH  075%=      5-min Rain = 0
KGU1 090908Z 19005KT 05/01 A3027 RMK A01 T00510012  RH  077%=      5-min Rain = 0
KGU1 090909Z 21006KT 05/01 A3027 RMK A01 T00490012  RH  078%=      5-min Rain = 0
KGU1 090910Z 20006KT 05/01 A3027 RMK A01 T00490014  RH  079%=      5-min Rain = 0
KGU1 090911Z 21004KT 05/02 A3027 RMK A01 T00510015  RH  078%=      5-min Rain = 0
KGU1 090912Z 20005KT 05/01 A3027 RMK A01 T00510014  RH  078%=      5-min Rain = 0
KGU1 090913Z 19005KT 05/01 A3027 RMK A01 T00510014  RH  078%=      5-min Rain = 0
KGU1 090914Z 19006KT 05/01 A3027 RMK A01 T00500013  RH  078%=      5-min Rain = 0
KGU1 090915Z 20007KT 05/01 A3027 RMK A01 T00490014  RH  079%=      5-min Rain = 0
KGU1 090916Z 20006KT 05/01 A3027 RMK A01 T00460014  RH  081%=      5-min Rain = 0
KGU1 090917Z 19007KT 05/02 A3027 RMK A01 T00450015  RH  082%=      5-min Rain = 0
KGU1 090918Z 20006KT 04/02 A3028 RMK A01 T00440015  RH  083%=      5-min Rain = 0
KGU1 090919Z 20005KT 04/02 A3028 RMK A01 T00430015  RH  083%=      5-min Rain = 0
KGU1 090920Z 19007KT 04/02 A3027 RMK A01 T00420015  RH  084%=      5-min Rain = 0
KGU1 090921Z 19006KT 04/02 A3027 RMK A01 T00410016  RH  085%=      5-min Rain = 0
KGU1 090922Z 23004KT 04/02 A3028 RMK A01 T00410017  RH  086%=      5-min Rain = 0
KGU1 090923Z 21003KT 04/02 A3028 RMK A01 T00410017  RH  085%=      5-min Rain = 0
KGU1 090924Z 19003KT 04/02 A3028 RMK A01 T00410016  RH  085%=      5-min Rain = 0
KGU1 090925Z 18004KT 04/02 A3027 RMK A01 T00410017  RH  085%=      5-min Rain = 0
KGU1 090926Z 18003KT 04/02 A3027 RMK A01 T00430016  RH  084%=      5-min Rain = 0
KGU1 090927Z 20006KT 04/01 A3028 RMK A01 T00430014  RH  083%=      5-min Rain = 0
KGU1 090928Z 19007KT 04/02 A3027 RMK A01 T00420015  RH  084%=      5-min Rain = 0
KGU1 090929Z 20008KT 04/02 A3027 RMK A01 T00410016  RH  085%=      5-min Rain = 0
KGU1 090930Z 20006KT 04/02 A3028 RMK A01 T00400016  RH  085%=      5-min Rain = 0
KGU1 090931Z 21005KT 04/02 A3028 RMK A01 T00390015  RH  086%=      5-min Rain = 0
KGU1 090932Z 20006KT 04/02 A3028 RMK A01 T00380016  RH  087%=      5-min Rain = 0
KGU1 090933Z 20008KT 04/02 A3028 RMK A01 T00380016  RH  087%=      5-min Rain = 0
KGU1 090934Z 19010KT 04/02 A3027 RMK A01 T00370016  RH  087%=      5-min Rain = 0
KGU1 090935Z 19008KT 04/02 A3027 RMK A01 T00360017  RH  088%=      5-min Rain = 0
KGU1 090936Z 21006KT 05/02 A3027 RMK A01 T00450019  RH  085%=      5-min Rain = 0
KGU1 090937Z 20005KT 05/02 A3028 RMK A01 T00490017  RH  081%=      5-min Rain = 0
KGU1 090938Z 18002KT 05/02 A3028 RMK A01 T00510017  RH  080%=      5-min Rain = 0
KGU1 090939Z 17004KT 06/02 A3027 RMK A01 T00550016  RH  077%=      5-min Rain = 0
KGU1 090940Z 18005KT 05/02 A3027 RMK A01 T00500015  RH  079%=      5-min Rain = 0
KGU1 090941Z 18005KT 05/02 A3027 RMK A01 T00480016  RH  081%=      5-min Rain = 0
KGU1 090942Z 20004KT 05/02 A3027 RMK A01 T00500016  RH  080%=      5-min Rain = 0
KGU1 090943Z 21006KT 05/02 A3028 RMK A01 T00500015  RH  079%=      5-min Rain = 0
KGU1 090944Z 18006KT 05/02 A3028 RMK A01 T00470015  RH  081%=      5-min Rain = 0
KGU1 090945Z 17006KT 04/02 A3028 RMK A01 T00430015  RH  083%=      5-min Rain = 0
KGU1 090946Z 19008KT 04/02 A3028 RMK A01 T00390015  RH  086%=      5-min Rain = 0
KGU1 090947Z 20007KT 04/02 A3028 RMK A01 T00370016  RH  087%=      5-min Rain = 0
KGU1 090948Z 19006KT 04/02 A3028 RMK A01 T00350016  RH  089%=      5-min Rain = 0
KGU1 090949Z 21006KT 03/02 A3028 RMK A01 T00340016  RH  089%=      5-min Rain = 0
KGU1 090950Z 21004KT 03/02 A3028 RMK A01 T00340017  RH  090%=      5-min Rain = 0
KGU1 090951Z 22004KT 03/02 A3028 RMK A01 T00340017  RH  090%=      5-min Rain = 0
KGU1 090952Z 21005G10KT 03/02 A3028 RMK A01 T00330017  RH  091%=      5-min Rain = 0
KGU1 090953Z 22007KT 03/02 A3028 RMK A01 T00330017  RH  091%=      5-min Rain = 0
KGU1 090954Z 22008KT 03/02 A3028 RMK A01 T00320017  RH  091%=      5-min Rain = 0
KGU1 090955Z 21008KT 03/02 A3028 RMK A01 T00310016  RH  091%=      5-min Rain = 0
KGU1 090956Z 21008KT 03/02 A3028 RMK A01 T00290016  RH  092%=      5-min Rain = 0
KGU1 090957Z 21008KT 03/02 A3028 RMK A01 T00280015  RH  093%=      5-min Rain = 0
KGU1 090958Z 20009KT 03/02 A3028 RMK A01 T00280016  RH  094%=      5-min Rain = 0
KGU1 090959Z 19007KT 03/02 A3028 RMK A01 T00280017  RH  094%=      5-min Rain = 0
KGU1 091000Z 19007KT 03/02 A3028 RMK A01 T00290017  RH  093%=      5-min Rain = 0
KGU1 091001Z 20006KT 03/02 A3028 RMK A01 T00300017  RH  092%=      5-min Rain = 0
KGU1 091002Z 22006KT 03/02 A3028 RMK A01 T00310017  RH  092%=      5-min Rain = 0
KGU1 091003Z 21007KT 03/02 A3028 RMK A01 T00310017  RH  092%=      5-min Rain = 0
KGU1 091004Z 21009KT 03/02 A3028 RMK A01 T00290015  RH  092%=      5-min Rain = 0
KGU1 091005Z 20008KT 03/02 A3028 RMK A01 T00280015  RH  093%=      5-min Rain = 0
KGU1 091006Z 22006KT 03/02 A3028 RMK A01 T00260015  RH  093%=      5-min Rain = 0
KGU1 091007Z 23005KT 03/02 A3028 RMK A01 T00260015  RH  094%=      5-min Rain = 0
KGU1 091008Z 25007KT 03/02 A3028 RMK A01 T00260016  RH  094%=      5-min Rain = 0
KGU1 091009Z 25006KT 03/02 A3028 RMK A01 T00260016  RH  095%=      5-min Rain = 0
KGU1 091010Z 22005KT 03/02 A3028 RMK A01 T00280017  RH  094%=      5-min Rain = 0
KGU1 091011Z 21006KT 03/02 A3028 RMK A01 T00280017  RH  094%=      5-min Rain = 0
KGU1 091012Z 22005KT 03/02 A3028 RMK A01 T00270016  RH  094%=      5-min Rain = 0
KGU1 091013Z 27005KT 03/02 A3028 RMK A01 T00270017  RH  094%=      5-min Rain = 0
KGU1 091014Z 30006KT 03/02 A3028 RMK A01 T00280017  RH  094%=      5-min Rain = 0
KGU1 091015Z 31006KT 03/02 A3028 RMK A01 T00300018  RH  093%=      5-min Rain = 0
KGU1 091016Z 29005KT 03/01 A3028 RMK A01 T00310014  RH  090%=      5-min Rain = 0
KGU1 091017Z 28004KT 03/01 A3028 RMK A01 T00300013  RH  090%=      5-min Rain = 0
KGU1 091018Z 22003KT 03/02 A3028 RMK A01 T00320015  RH  090%=      5-min Rain = 0
KGU1 091019Z 23003KT 04/02 A3028 RMK A01 T00360017  RH  088%=      5-min Rain = 0
KGU1 091020Z 25003KT 04/01 A3028 RMK A01 T00360014  RH  087%=      5-min Rain = 0
KGU1 091021Z 21002KT 04/01 A3028 RMK A01 T00350013  RH  087%=      5-min Rain = 0
KGU1 091022Z 20002KT 03/01 A3028 RMK A01 T00340013  RH  087%=      5-min Rain = 0
KGU1 091023Z 31000KT 03/01 A3028 RMK A01 T00330013  RH  088%=      5-min Rain = 0
KGU1 091024Z 35000KT 03/01 A3028 RMK A01 T00330014  RH  089%=      5-min Rain = 0
KGU1 091025Z 13000KT 03/02 A3028 RMK A01 T00330015  RH  089%=      5-min Rain = 0
KGU1 091026Z 15002KT 03/02 A3028 RMK A01 T00340016  RH  089%=      5-min Rain = 0
KGU1 091027Z 16003KT 03/02 A3028 RMK A01 T00340015  RH  089%=      5-min Rain = 0
KGU1 091028Z 18005KT 03/01 A3028 RMK A01 T00320012  RH  088%=      5-min Rain = 0
KGU1 091029Z 22004KT 03/01 A3028 RMK A01 T00300012  RH  089%=      5-min Rain = 0
KGU1 091030Z 21004KT 03/01 A3028 RMK A01 T00280012  RH  090%=      5-min Rain = 0
KGU1 091031Z 22004KT 03/01 A3028 RMK A01 T00260012  RH  091%=      5-min Rain = 0
KGU1 091032Z 24004KT 03/01 A3028 RMK A01 T00250011  RH  092%=      5-min Rain = 0
KGU1 091033Z 31004KT 02/01 A3028 RMK A01 T00240011  RH  093%=      5-min Rain = 0
KGU1 091034Z 32004KT 02/01 A3028 RMK A01 T00220009  RH  092%=      5-min Rain = 0
KGU1 091035Z 31002KT 02/01 A3028 RMK A01 T00220009  RH  092%=      5-min Rain = 0
KGU1 091036Z 23001KT 03/01 A3028 RMK A01 T00250014  RH  094%=      5-min Rain = 0
KGU1 091037Z 20004KT 03/01 A3028 RMK A01 T00280014  RH  092%=      5-min Rain = 0
KGU1 091038Z 20003KT 03/01 A3028 RMK A01 T00300013  RH  090%=      5-min Rain = 0
KGU1 091039Z 19003KT 03/01 A3027 RMK A01 T00300012  RH  089%=      5-min Rain = 0
KGU1 091040Z 17002KT 03/01 A3027 RMK A01 T00310014  RH  090%=      5-min Rain = 0
KGU1 091041Z 19001KT 04/02 A3027 RMK A01 T00350016  RH  088%=      5-min Rain = 0
KGU1 091042Z 23002KT 04/01 A3027 RMK A01 T00370014  RH  086%=      5-min Rain = 0
KGU1 091043Z 29004KT 04/01 A3027 RMK A01 T00350009  RH  084%=      5-min Rain = 0
KGU1 091044Z 28003KT 03/01 A3027 RMK A01 T00310007  RH  085%=      5-min Rain = 0
KGU1 091045Z 23002KT 03/01 A3027 RMK A01 T00300008  RH  087%=      5-min Rain = 0
KGU1 091046Z 17002KT 03/01 A3027 RMK A01 T00280008  RH  088%=      5-min Rain = 0
KGU1 091047Z 18002KT 03/01 A3027 RMK A01 T00280010  RH  089%=      5-min Rain = 0
KGU1 091048Z 19001KT 03/01 A3027 RMK A01 T00290012  RH  090%=      5-min Rain = 0
KGU1 091049Z 19002KT 03/01 A3027 RMK A01 T00310014  RH  090%=      5-min Rain = 0
KGU1 091050Z 16002KT 03/01 A3027 RMK A01 T00320014  RH  089%=      5-min Rain = 0
KGU1 091051Z 16003KT 03/01 A3027 RMK A01 T00340014  RH  088%=      5-min Rain = 0
KGU1 091052Z 17003KT 04/02 A3027 RMK A01 T00370015  RH  087%=      5-min Rain = 0
KGU1 091053Z 17003KT 04/02 A3027 RMK A01 T00400015  RH  085%=      5-min Rain = 0
KGU1 091054Z 17006KT 04/01 A3027 RMK A01 T00410013  RH  084%=      5-min Rain = 0
KGU1 091055Z 17007KT 04/01 A3027 RMK A01 T00370009  RH  083%=      5-min Rain = 0
KGU1 091056Z 17006KT 03/01 A3027 RMK A01 T00320007  RH  085%=      5-min Rain = 0
KGU1 091057Z 17007KT 03/01 A3027 RMK A01 T00290008  RH  087%=      5-min Rain = 0
KGU1 091058Z 17007KT 03/01 A3027 RMK A01 T00300011  RH  088%=      5-min Rain = 0
KGU1 091059Z 19006KT 04/01 A3027 RMK A01 T00350014  RH  087%=      5-min Rain = 0
KGU1 091100Z 21005KT 04/01 A3028 RMK A01 T00370012  RH  085%=      5-min Rain = 0
KGU1 091101Z 20003KT 04/01 A3028 RMK A01 T00350012  RH  086%=      5-min Rain = 0
KGU1 091102Z 20002KT 03/01 A3028 RMK A01 T00340012  RH  087%=      5-min Rain = 0
KGU1 091103Z 26001KT 03/01 A3028 RMK A01 T00330011  RH  087%=      5-min Rain = 0
KGU1 091104Z 28000KT 03/01 A3028 RMK A01 T00310010  RH  087%=      5-min Rain = 0
KGU1 091105Z 35000KT 03/01 A3028 RMK A01 T00310010  RH  087%=      5-min Rain = 0
KGU1 091106Z 35000KT 03/01 A3028 RMK A01 T00310010  RH  088%=      5-min Rain = 0
KGU1 091107Z 26000KT 03/01 A3028 RMK A01 T00310011  RH  088%=      5-min Rain = 0
KGU1 091108Z 17001KT 03/01 A3028 RMK A01 T00320011  RH  087%=      5-min Rain = 0
KGU1 091109Z 17000KT 03/01 A3028 RMK A01 T00320011  RH  088%=      5-min Rain = 0
KGU1 091110Z 35000KT 03/01 A3028 RMK A01 T00310012  RH  088%=      5-min Rain = 0
KGU1 091111Z 01001KT 03/01 A3028 RMK A01 T00320012  RH  088%=      5-min Rain = 0
KGU1 091112Z 04001KT 03/01 A3028 RMK A01 T00330013  RH  088%=      5-min Rain = 0
KGU1 091113Z 08001KT 04/01 A3028 RMK A01 T00360014  RH  087%=      5-min Rain = 0
KGU1 091114Z 09001KT 04/01 A3028 RMK A01 T00380014  RH  086%=      5-min Rain = 0
KGU1 091115Z 13001KT 04/01 A3028 RMK A01 T00380013  RH  085%=      5-min Rain = 0
KGU1 091116Z 15002KT 04/01 A3028 RMK A01 T00400013  RH  084%=      5-min Rain = 0
KGU1 091117Z 15003KT 04/01 A3028 RMK A01 T00420012  RH  082%=      5-min Rain = 0
KGU1 091118Z 15003KT 04/01 A3028 RMK A01 T00390009  RH  082%=      5-min Rain = 0
KGU1 091119Z 17004KT 04/01 A3028 RMK A01 T00350008  RH  083%=      5-min Rain = 0
KGU1 091120Z 20005KT 03/01 A3028 RMK A01 T00320008  RH  085%=      5-min Rain = 0
KGU1 091121Z 24005KT 03/01 A3028 RMK A01 T00310008  RH  086%=      5-min Rain = 0
KGU1 091122Z 27006KT 03/01 A3028 RMK A01 T00290007  RH  086%=      5-min Rain = 0
KGU1 091123Z 27004KT 03/00 A3028 RMK A01 T00260003  RH  086%=      5-min Rain = 0
KGU1 091124Z 31002KT 02/00 A3028 RMK A01 T00240003  RH  087%=      5-min Rain = 0
KGU1 091125Z 20001KT 03/01 A3028 RMK A01 T00250006  RH  089%=      5-min Rain = 0
KGU1 091126Z 20003KT 03/01 A3028 RMK A01 T00250007  RH  089%=      5-min Rain = 0
KGU1 091127Z 21001KT 03/01 A3028 RMK A01 T00260008  RH  090%=      5-min Rain = 0
KGU1 091128Z 21002KT 03/01 A3028 RMK A01 T00280010  RH  090%=      5-min Rain = 0
KGU1 091129Z 22002KT 03/01 A3028 RMK A01 T00280009  RH  089%=      5-min Rain = 0
KGU1 091130Z 26003KT 03/01 A3028 RMK A01 T00280008  RH  088%=      5-min Rain = 0
KGU1 091131Z 14001KT 03/01 A3028 RMK A01 T00280008  RH  088%=      5-min Rain = 0
KGU1 091132Z 32000KT 03/01 A3028 RMK A01 T00300009  RH  087%=      5-min Rain = 0
KGU1 091133Z 26002KT 03/01 A3028 RMK A01 T00310010  RH  087%=      5-min Rain = 0
KGU1 091134Z 23003KT 03/01 A3028 RMK A01 T00340009  RH  085%=      5-min Rain = 0
KGU1 091135Z 20003KT 04/01 A3028 RMK A01 T00370009  RH  083%=      5-min Rain = 0
KGU1 091136Z 17003KT 04/01 A3028 RMK A01 T00390009  RH  082%=      5-min Rain = 0
KGU1 091137Z 19005KT 04/01 A3028 RMK A01 T00390007  RH  080%=      5-min Rain = 0
KGU1 091138Z 20006KT 04/01 A3028 RMK A01 T00360005  RH  081%=      5-min Rain = 0
KGU1 091139Z 23003KT 03/01 A3028 RMK A01 T00330005  RH  083%=      5-min Rain = 0
KGU1 091140Z 23003KT 03/01 A3028 RMK A01 T00310006  RH  084%=      5-min Rain = 0
KGU1 091141Z 22003KT 03/01 A3028 RMK A01 T00320007  RH  085%=      5-min Rain = 0
KGU1 091142Z 21003KT 03/01 A3028 RMK A01 T00330007  RH  084%=      5-min Rain = 0
KGU1 091143Z 21003KT 03/01 A3028 RMK A01 T00340007  RH  083%=      5-min Rain = 0
KGU1 091144Z 19003KT 04/01 A3028 RMK A01 T00350005  RH  082%=      5-min Rain = 0
KGU1 091145Z 18004KT 03/00 A3028 RMK A01 T00340004  RH  082%=      5-min Rain = 0
KGU1 091146Z 18004KT 03/00 A3028 RMK A01 T00320003  RH  083%=      5-min Rain = 0
KGU1 091147Z 16003KT 03/00 A3028 RMK A01 T00300004  RH  084%=      5-min Rain = 0
KGU1 091148Z 13003KT 03/01 A3028 RMK A01 T00290005  RH  085%=      5-min Rain = 0
KGU1 091149Z 14003KT 03/01 A3028 RMK A01 T00300007  RH  086%=      5-min Rain = 0
KGU1 091150Z 15006KT 03/01 A3028 RMK A01 T00330007  RH  085%=      5-min Rain = 0
KGU1 091151Z 14005KT 04/01 A3028 RMK A01 T00400006  RH  080%=      5-min Rain = 0
KGU1 091152Z 13006KT 04/01 A3028 RMK A01 T00440005  RH  077%=      5-min Rain = 0
KGU1 091153Z 15006KT 04/01 A3028 RMK A01 T00430005  RH  077%=      5-min Rain = 0
KGU1 091154Z 16004KT 04/00 A3029 RMK A01 T00410004  RH  078%=      5-min Rain = 0
KGU1 091155Z 16003KT 04/00 A3029 RMK A01 T00380003  RH  079%=      5-min Rain = 0
KGU1 091156Z 15002KT 04/00 A3029 RMK A01 T00370002  RH  079%=      5-min Rain = 0
KGU1 091157Z 15003KT 04/00 A3029 RMK A01 T00360002  RH  079%=      5-min Rain = 0
KGU1 091158Z 16002KT 04/00 A3029 RMK A01 T00350002  RH  080%=      5-min Rain = 0
KGU1 091159Z 04001KT 04/00 A3029 RMK A01 T00350002  RH  080%=      5-min Rain = 0
KGU1 091200Z 03002KT 03/00 A3029 RMK A01 T00340001  RH  080%=      5-min Rain = 0
KGU1 091201Z 06002KT 04/00 A3029 RMK A01 T00350002  RH  080%=      5-min Rain = 0
KGU1 091202Z 11002KT 04/00 A3029 RMK A01 T00360002  RH  079%=      5-min Rain = 0
KGU1 091203Z 11003KT 04/00 A3029 RMK A01 T00370002  RH  079%=      5-min Rain = 0
KGU1 091204Z 18003KT 04/00 A3029 RMK A01 T00370002  RH  079%=      5-min Rain = 0
KGU1 091205Z 22005KT 04/00 A3029 RMK A01 T00360002  RH  079%=      5-min Rain = 0
KGU1 091206Z 25004KT 03/00 A3029 RMK A01 T00340002  RH  080%=      5-min Rain = 0
KGU1 091207Z 24003KT 03/00 A3029 RMK A01 T00340001  RH  080%=      5-min Rain = 0
KGU1 091208Z 20005KT 03/00 A3029 RMK A01 T00340002  RH  080%=      5-min Rain = 0
KGU1 091209Z 19006KT 03/00 A3029 RMK A01 T00320002  RH  082%=      5-min Rain = 0
KGU1 091210Z 19005KT 03/01 A3029 RMK A01 T00280005  RH  086%=      5-min Rain = 0
KGU1 091211Z 18005KT 03/01 A3029 RMK A01 T00260007  RH  088%=      5-min Rain = 0
KGU1 091212Z 18004KT 03/01 A3029 RMK A01 T00250008  RH  089%=      5-min Rain = 0
KGU1 091213Z 25001KT 02/01 A3029 RMK A01 T00240007  RH  090%=      5-min Rain = 0
KGU1 091214Z 33004KT 02/00 A303 RMK A01 T00220004  RH  089%=      5-min Rain = 0
KGU1 091215Z 33004KT 02/00 A303 RMK A01 T00200001  RH  088%=      5-min Rain = 0
KGU1 091216Z 34004KT 02/00 A303 RMK A01 T00190000  RH  088%=      5-min Rain = 0
KGU1 091217Z 32002KT 02/00 A303 RMK A01 T00200001  RH  088%=      5-min Rain = 0
KGU1 091218Z 24002KT 02/00 A303 RMK A01 T00240003  RH  087%=      5-min Rain = 0
KGU1 091219Z 24003KT 03/01 A303 RMK A01 T00280005  RH  086%=      5-min Rain = 0
KGU1 091220Z 25002KT 03/01 A303 RMK A01 T00320006  RH  084%=      5-min Rain = 0
KGU1 091221Z 29002KT 03/01 A303 RMK A01 T00340005  RH  083%=      5-min Rain = 0
KGU1 091222Z 31004KT 03/00 A303 RMK A01 T00340004  RH  081%=      5-min Rain = 0
KGU1 091223Z 19002KT 03/M00 A303 RMK A01 T00331001  RH  079%=      5-min Rain = 0
KGU1 091224Z 19003KT 04/00 A303 RMK A01 T00350001  RH  079%=      5-min Rain = 0
KGU1 091225Z 22003KT 04/M01 A303 RMK A01 T00431010  RH  069%=      5-min Rain = 0
KGU1 091226Z 21004KT 05/M02 A303 RMK A01 T00541018  RH  060%=      5-min Rain = 0
KGU1 091227Z 23006KT 06/M02 A303 RMK A01 T00591017  RH  059%=      5-min Rain = 0
KGU1 091228Z 27003KT 06/M02 A303 RMK A01 T00641021  RH  055%=      5-min Rain = 0
KGU1 091229Z 26002KT 07/M01 A303 RMK A01 T00661014  RH  057%=      5-min Rain = 0
KGU1 091230Z 21003KT 06/M01 A303 RMK A01 T00641006  RH  062%=      5-min Rain = 0
KGU1 091231Z 28002KT 06/M00 A303 RMK A01 T00591004  RH  065%=      5-min Rain = 0
KGU1 091232Z 30003KT 06/M01 A303 RMK A01 T00551006  RH  065%=      5-min Rain = 0
KGU1 091233Z 30002KT 06/M01 A303 RMK A01 T00571012  RH  062%=      5-min Rain = 0
KGU1 091234Z 29003KT 06/M01 A303 RMK A01 T00591013  RH  060%=      5-min Rain = 0
KGU1 091235Z 27002KT 06/M02 A303 RMK A01 T00611016  RH  058%=      5-min Rain = 0
KGU1 091236Z 25001KT 06/M01 A303 RMK A01 T00641014  RH  058%=      5-min Rain = 0
KGU1 091237Z 35002KT 06/M01 A303 RMK A01 T00631014  RH  058%=      5-min Rain = 0
KGU1 091238Z 00003KT 06/M02 A303 RMK A01 T00591017  RH  059%=      5-min Rain = 0
KGU1 091239Z 00003KT 06/M02 A3031 RMK A01 T00561017  RH  060%=      5-min Rain = 0
KGU1 091240Z 02002KT 05/M02 A3031 RMK A01 T00531016  RH  062%=      5-min Rain = 0
KGU1 091241Z 29001KT 05/M02 A3031 RMK A01 T00501015  RH  063%=      5-min Rain = 0
KGU1 091242Z 25001KT 05/M01 A3031 RMK A01 T00461014  RH  065%=      5-min Rain = 0
KGU1 091243Z 22000KT 04/M01 A3031 RMK A01 T00421012  RH  068%=      5-min Rain = 0
KGU1 091244Z 20000KT 04/M01 A3031 RMK A01 T00401008  RH  071%=      5-min Rain = 0
KGU1 091245Z 17000KT 04/M01 A3031 RMK A01 T00391007  RH  073%=      5-min Rain = 0
KGU1 091246Z 00000KT 04/M01 A3031 RMK A01 T00381007  RH  073%=      5-min Rain = 0
KGU1 091247Z 00000KT 04/M01 A3031 RMK A01 T00381007  RH  073%=      5-min Rain = 0
KGU1 091248Z 20001KT 04/M01 A3031 RMK A01 T00361009  RH  073%=      5-min Rain = 0
KGU1 091249Z 22003KT 03/M01 A3031 RMK A01 T00341010  RH  073%=      5-min Rain = 0
KGU1 091250Z 25006KT 04/M01 A3031 RMK A01 T00351009  RH  074%=      5-min Rain = 0
KGU1 091251Z 26006KT 04/M01 A3031 RMK A01 T00361009  RH  073%=      5-min Rain = 0
KGU1 091252Z 25006KT 04/M01 A3031 RMK A01 T00371009  RH  072%=      5-min Rain = 0
KGU1 091253Z 24005KT 04/M01 A3031 RMK A01 T00391009  RH  072%=      5-min Rain = 0
KGU1 091254Z 22004KT 04/M01 A3031 RMK A01 T00421010  RH  069%=      5-min Rain = 0
KGU1 091255Z 28005KT 04/M01 A3031 RMK A01 T00441011  RH  068%=      5-min Rain = 0
KGU1 091256Z 27004KT 04/M01 A3031 RMK A01 T00401012  RH  070%=      5-min Rain = 0
KGU1 091257Z 26004KT 04/M01 A3031 RMK A01 T00371012  RH  071%=      5-min Rain = 0
KGU1 091258Z 26004KT 04/M01 A3031 RMK A01 T00391013  RH  070%=      5-min Rain = 0
KGU1 091259Z 29006KT 04/M01 A3031 RMK A01 T00421013  RH  068%=      5-min Rain = 0
KGU1 091300Z 29005KT 05/M01 A3031 RMK A01 T00471014  RH  065%=      5-min Rain = 0
KGU1 091301Z 25004KT 05/M02 A3031 RMK A01 T00501015  RH  063%=      5-min Rain = 0
KGU1 091302Z 28004KT 05/M02 A3031 RMK A01 T00541015  RH  062%=      5-min Rain = 0
KGU1 091303Z 28005KT 05/M02 A3031 RMK A01 T00541016  RH  061%=      5-min Rain = 0
KGU1 091304Z 26003KT 06/M02 A3031 RMK A01 T00551017  RH  060%=      5-min Rain = 0
KGU1 091305Z 27002KT 06/M02 A3031 RMK A01 T00571017  RH  060%=      5-min Rain = 0
KGU1 091306Z 26003KT 06/M02 A3031 RMK A01 T00571017  RH  059%=      5-min Rain = 0
KGU1 091307Z 25003KT 06/M02 A3031 RMK A01 T00581018  RH  059%=      5-min Rain = 0
KGU1 091308Z 24002KT 06/M02 A3031 RMK A01 T00601018  RH  058%=      5-min Rain = 0
KGU1 091309Z 26003KT 06/M02 A3031 RMK A01 T00611018  RH  058%=      5-min Rain = 0
KGU1 091310Z 25003KT 06/M02 A3031 RMK A01 T00581018  RH  059%=      5-min Rain = 0
KGU1 091311Z 25003KT 06/M02 A3031 RMK A01 T00571018  RH  059%=      5-min Rain = 0
KGU1 091312Z 25004KT 06/M02 A3031 RMK A01 T00551018  RH  060%=      5-min Rain = 0
KGU1 091313Z 25005KT 05/M02 A3031 RMK A01 T00541018  RH  060%=      5-min Rain = 0
KGU1 091314Z 25004KT 05/M02 A3031 RMK A01 T00531018  RH  061%=      5-min Rain = 0
KGU1 091315Z 24004KT 05/M02 A3031 RMK A01 T00511018  RH  062%=      5-min Rain = 0
KGU1 091316Z 24004KT 05/M02 A3031 RMK A01 T00501017  RH  062%=      5-min Rain = 0
KGU1 091317Z 23003KT 05/M02 A3031 RMK A01 T00481017  RH  063%=      5-min Rain = 0
KGU1 091318Z 24004KT 05/M02 A3031 RMK A01 T00451018  RH  064%=      5-min Rain = 0
KGU1 091319Z 24005KT 04/M02 A3031 RMK A01 T00421018  RH  066%=      5-min Rain = 0
KGU1 091320Z 25004KT 04/M02 A3031 RMK A01 T00401017  RH  067%=      5-min Rain = 0
KGU1 091321Z 25004KT 04/M02 A3031 RMK A01 T00381017  RH  067%=      5-min Rain = 0
KGU1 091322Z 26003KT 04/M02 A3031 RMK A01 T00371017  RH  068%=      5-min Rain = 0
KGU1 091323Z 25003KT 04/M02 A3031 RMK A01 T00371017  RH  068%=      5-min Rain = 0
KGU1 091324Z 25003KT 04/M02 A3032 RMK A01 T00371017  RH  069%=      5-min Rain = 0
KGU1 091325Z 26003KT 04/M02 A3032 RMK A01 T00361017  RH  069%=      5-min Rain = 0
KGU1 091326Z 26003KT 04/M02 A3032 RMK A01 T00351018  RH  069%=      5-min Rain = 0
KGU1 091327Z 28002KT 03/M02 A3032 RMK A01 T00321019  RH  070%=      5-min Rain = 0
KGU1 091328Z 31002KT 03/M02 A3032 RMK A01 T00291019  RH  071%=      5-min Rain = 0
KGU1 091329Z 31003KT 03/M02 A3032 RMK A01 T00291018  RH  072%=      5-min Rain = 0
KGU1 091330Z 32002KT 03/M02 A3032 RMK A01 T00311017  RH  071%=      5-min Rain = 0
KGU1 091331Z 29003KT 03/M02 A3032 RMK A01 T00321017  RH  071%=      5-min Rain = 0
KGU1 091332Z 31003KT 03/M02 A3032 RMK A01 T00321018  RH  070%=      5-min Rain = 0
KGU1 091333Z 29003KT 03/M02 A3032 RMK A01 T00321019  RH  070%=      5-min Rain = 0
KGU1 091334Z 30003KT 03/M02 A3032 RMK A01 T00331018  RH  070%=      5-min Rain = 0
KGU1 091335Z 30003KT 03/M02 A3032 RMK A01 T00341018  RH  069%=      5-min Rain = 0
KGU1 091336Z 31004KT 04/M02 A3032 RMK A01 T00361018  RH  068%=      5-min Rain = 0
KGU1 091337Z 30004KT 04/M02 A3032 RMK A01 T00351019  RH  068%=      5-min Rain = 0
KGU1 091338Z 32005KT 04/M02 A3032 RMK A01 T00371018  RH  068%=      5-min Rain = 0
KGU1 091339Z 30004KT 04/M02 A3032 RMK A01 T00381018  RH  067%=      5-min Rain = 0
KGU1 091340Z 29005KT 04/M02 A3032 RMK A01 T00361019  RH  068%=      5-min Rain = 0
KGU1 091341Z 30005KT 04/M02 A3032 RMK A01 T00361019  RH  068%=      5-min Rain = 0
KGU1 091342Z 30004KT 04/M02 A3032 RMK A01 T00371018  RH  068%=      5-min Rain = 0
KGU1 091343Z 29004KT 04/M02 A3032 RMK A01 T00371018  RH  067%=      5-min Rain = 0
KGU1 091344Z 30004KT 04/M02 A3032 RMK A01 T00391018  RH  067%=      5-min Rain = 0
KGU1 091345Z 29004KT 04/M02 A3032 RMK A01 T00391019  RH  066%=      5-min Rain = 0
KGU1 091346Z 31005KT 04/M02 A3032 RMK A01 T00351021  RH  068%=      5-min Rain = 0
KGU1 091347Z 31005KT 03/M02 A3032 RMK A01 T00321021  RH  069%=      5-min Rain = 0
KGU1 091348Z 30005KT 03/M02 A3032 RMK A01 T00311021  RH  069%=      5-min Rain = 0
KGU1 091349Z 29004KT 03/M02 A3032 RMK A01 T00301021  RH  070%=      5-min Rain = 0
KGU1 091350Z 29005KT 03/M02 A3032 RMK A01 T00331021  RH  068%=      5-min Rain = 0
KGU1 091351Z 30005KT 04/M02 A3032 RMK A01 T00371022  RH  065%=      5-min Rain = 0
KGU1 091352Z 29004KT 04/M02 A3032 RMK A01 T00411023  RH  063%=      5-min Rain = 0
KGU1 091353Z 30002KT 05/M02 A3032 RMK A01 T00451023  RH  062%=      5-min Rain = 0
KGU1 091354Z 32001KT 05/M02 A3032 RMK A01 T00461023  RH  061%=      5-min Rain = 0
KGU1 091355Z 32002KT 05/M02 A3032 RMK A01 T00491023  RH  060%=      5-min Rain = 0
KGU1 091356Z 33003KT 05/M02 A3032 RMK A01 T00501024  RH  059%=      5-min Rain = 0
KGU1 091357Z 31004KT 05/M02 A3032 RMK A01 T00511024  RH  059%=      5-min Rain = 0
KGU1 091358Z 32005KT 05/M02 A3033 RMK A01 T00501023  RH  060%=      5-min Rain = 0
KGU1 091359Z 32004KT 05/M02 A3033 RMK A01 T00491022  RH  060%=      5-min Rain = 0
KGU1 091400Z 31005KT 05/M02 A3033 RMK A01 T00471021  RH  062%=      5-min Rain = 0
KGU1 091401Z 32005KT 05/M02 A3033 RMK A01 T00451020  RH  063%=      5-min Rain = 0
KGU1 091402Z 33005KT 04/M02 A3033 RMK A01 T00431020  RH  064%=      5-min Rain = 0
KGU1 091403Z 34005KT 04/M02 A3033 RMK A01 T00411020  RH  065%=      5-min Rain = 0
KGU1 091404Z 35005KT 04/M02 A3033 RMK A01 T00401019  RH  066%=      5-min Rain = 0
KGU1 091405Z 34003KT 04/M02 A3033 RMK A01 T00411019  RH  065%=      5-min Rain = 0
KGU1 091406Z 33004KT 04/M02 A3033 RMK A01 T00421020  RH  065%=      5-min Rain = 0
KGU1 091407Z 33004KT 04/M02 A3033 RMK A01 T00431020  RH  064%=      5-min Rain = 0
KGU1 091408Z 31005KT 04/M02 A3033 RMK A01 T00431019  RH  065%=      5-min Rain = 0
KGU1 091409Z 31006KT 04/M02 A3033 RMK A01 T00431019  RH  065%=      5-min Rain = 0
KGU1 091410Z 31005KT 04/M02 A3033 RMK A01 T00431019  RH  064%=      5-min Rain = 0
KGU1 091411Z 31005KT 04/M02 A3033 RMK A01 T00441018  RH  065%=      5-min Rain = 0
KGU1 091412Z 31005KT 04/M02 A3033 RMK A01 T00441019  RH  064%=      5-min Rain = 0
KGU1 091413Z 30005KT 05/M02 A3033 RMK A01 T00461018  RH  063%=      5-min Rain = 0
KGU1 091414Z 30007KT 05/M02 A3033 RMK A01 T00471021  RH  061%=      5-min Rain = 0
KGU1 091415Z 29007KT 05/M03 A3033 RMK A01 T00531025  RH  058%=      5-min Rain = 0
KGU1 091416Z 28007KT 06/M03 A3032 RMK A01 T00571025  RH  056%=      5-min Rain = 0
KGU1 091417Z 28009KT 06/M03 A3033 RMK A01 T00601027  RH  054%=      5-min Rain = 0
KGU1 091418Z 28008KT 06/M02 A3033 RMK A01 T00591022  RH  056%=      5-min Rain = 0
KGU1 091419Z 28008KT 06/M02 A3033 RMK A01 T00581021  RH  057%=      5-min Rain = 0
KGU1 091420Z 29007KT 06/M02 A3033 RMK A01 T00571021  RH  058%=      5-min Rain = 0
KGU1 091421Z 28006KT 06/M02 A3033 RMK A01 T00581023  RH  057%=      5-min Rain = 0
KGU1 091422Z 28005KT 06/M02 A3033 RMK A01 T00581021  RH  057%=      5-min Rain = 0
KGU1 091423Z 28004KT 06/M02 A3033 RMK A01 T00581022  RH  057%=      5-min Rain = 0
KGU1 091424Z 28004KT 06/M02 A3033 RMK A01 T00591021  RH  057%=      5-min Rain = 0
KGU1 091425Z 31004KT 06/M02 A3033 RMK A01 T00591022  RH  056%=      5-min Rain = 0
KGU1 091426Z 34004KT 06/M02 A3033 RMK A01 T00591022  RH  056%=      5-min Rain = 0
KGU1 091427Z 33002KT 06/M02 A3033 RMK A01 T00601023  RH  056%=      5-min Rain = 0
KGU1 091428Z 30001KT 06/M03 A3033 RMK A01 T00641026  RH  053%=      5-min Rain = 0
KGU1 091429Z 29002KT 07/M02 A3033 RMK A01 T00671023  RH  053%=      5-min Rain = 0
KGU1 091430Z 26002KT 07/M02 A3033 RMK A01 T00681023  RH  053%=      5-min Rain = 0
KGU1 091431Z 29001KT 07/M02 A3033 RMK A01 T00691024  RH  052%=      5-min Rain = 0
KGU1 091432Z 32001KT 07/M02 A3033 RMK A01 T00691019  RH  054%=      5-min Rain = 0
KGU1 091433Z 02001KT 07/M01 A3033 RMK A01 T00691014  RH  056%=      5-min Rain = 0
KGU1 091434Z 02001KT 07/M02 A3033 RMK A01 T00691018  RH  054%=      5-min Rain = 0
KGU1 091435Z 34002KT 07/M02 A3034 RMK A01 T00691018  RH  054%=      5-min Rain = 0
KGU1 091436Z 04003KT 07/M02 A3034 RMK A01 T00691018  RH  054%=      5-min Rain = 0
KGU1 091437Z 09003KT 07/M01 A3034 RMK A01 T00671013  RH  057%=      5-min Rain = 0
KGU1 091438Z 09001KT 07/M01 A3034 RMK A01 T00651014  RH  057%=      5-min Rain = 0
KGU1 091439Z 10002KT 07/M01 A3034 RMK A01 T00661010  RH  059%=      5-min Rain = 0
KGU1 091440Z 13001KT 07/M01 A3034 RMK A01 T00651007  RH  060%=      5-min Rain = 0
KGU1 091441Z 13001KT 06/M00 A3034 RMK A01 T00641001  RH  064%=      5-min Rain = 0
KGU1 091442Z 15002KT 06/00 A3034 RMK A01 T00620002  RH  066%=      5-min Rain = 0
KGU1 091443Z 15002KT 06/00 A3034 RMK A01 T00590003  RH  068%=      5-min Rain = 0
KGU1 091444Z 14002KT 06/00 A3034 RMK A01 T00550004  RH  070%=      5-min Rain = 0
KGU1 091445Z 13002KT 05/01 A3034 RMK A01 T00540005  RH  072%=      5-min Rain = 0
KGU1 091446Z 13002KT 05/01 A3034 RMK A01 T00540006  RH  072%=      5-min Rain = 0
KGU1 091447Z 14002KT 05/01 A3034 RMK A01 T00540007  RH  072%=      5-min Rain = 0
KGU1 091448Z 13003KT 05/01 A3034 RMK A01 T00530005  RH  072%=      5-min Rain = 0
KGU1 091449Z 12003KT 05/00 A3034 RMK A01 T00530003  RH  071%=      5-min Rain = 0
KGU1 091450Z 12003KT 05/00 A3034 RMK A01 T00530004  RH  072%=      5-min Rain = 0
KGU1 091451Z 12002KT 05/00 A3034 RMK A01 T00530004  RH  071%=      5-min Rain = 0
KGU1 091452Z 13002KT 06/00 A3034 RMK A01 T00550002  RH  070%=      5-min Rain = 0
KGU1 091453Z 14001KT 06/00 A3034 RMK A01 T00560001  RH  068%=      5-min Rain = 0
KGU1 091454Z 16001KT 06/00 A3034 RMK A01 T00570002  RH  068%=      5-min Rain = 0
KGU1 091455Z 16000KT 06/00 A3034 RMK A01 T00580002  RH  068%=      5-min Rain = 0
KGU1 091456Z 17000KT 06/00 A3034 RMK A01 T00590004  RH  069%=      5-min Rain = 0
KGU1 091457Z 17001KT 06/00 A3034 RMK A01 T00590004  RH  068%=      5-min Rain = 0
KGU1 091458Z 25000KT 06/00 A3034 RMK A01 T00590002  RH  068%=      5-min Rain = 0
KGU1 091459Z 00000KT 06/00 A3035 RMK A01 T00600002  RH  067%=      5-min Rain = 0
KGU1 091500Z 00000KT 06/M00 A3035 RMK A01 T00611001  RH  065%=      5-min Rain = 0
KGU1 091501Z 25000KT 06/M00 A3035 RMK A01 T00621001  RH  065%=      5-min Rain = 0
KGU1 091502Z 25000KT 06/M00 A3035 RMK A01 T00631002  RH  064%=      5-min Rain = 0
KGU1 091503Z 25000KT 06/M00 A3035 RMK A01 T00641002  RH  063%=      5-min Rain = 0
KGU1 091504Z 29000KT 07/M00 A3035 RMK A01 T00651001  RH  063%=      5-min Rain = 0
KGU1 091505Z 32001KT 07/M00 A3035 RMK A01 T00661001  RH  063%=      5-min Rain = 0
KGU1 091506Z 32000KT 07/00 A3035 RMK A01 T00670000  RH  063%=      5-min Rain = 0
KGU1 091507Z 00000KT 07/M00 A3035 RMK A01 T00681002  RH  062%=      5-min Rain = 0
KGU1 091508Z 32000KT 07/M01 A3035 RMK A01 T00691007  RH  059%=      5-min Rain = 0
KGU1 091509Z 31001KT 07/M01 A3035 RMK A01 T00691006  RH  060%=      5-min Rain = 0
KGU1 091510Z 30001KT 07/M00 A3035 RMK A01 T00691004  RH  060%=      5-min Rain = 0
KGU1 091511Z 30001KT 07/M00 A3035 RMK A01 T00711003  RH  060%=      5-min Rain = 0
KGU1 091512Z 30001KT 07/M00 A3035 RMK A01 T00711004  RH  059%=      5-min Rain = 0
KGU1 091513Z 29000KT 07/M01 A3035 RMK A01 T00721007  RH  058%=      5-min Rain = 0
KGU1 091514Z 28001KT 07/M01 A3035 RMK A01 T00731006  RH  058%=      5-min Rain = 0
KGU1 091515Z 25002KT 07/M00 A3035 RMK A01 T00741004  RH  058%=      5-min Rain = 0
KGU1 091516Z 24002KT 07/M00 A3035 RMK A01 T00741002  RH  059%=      5-min Rain = 0
KGU1 091517Z 22001KT 08/M01 A3035 RMK A01 T00751005  RH  058%=      5-min Rain = 0
KGU1 091518Z 21001KT 08/M00 A3035 RMK A01 T00761002  RH  058%=      5-min Rain = 0
KGU1 091519Z 21001KT 08/M01 A3035 RMK A01 T00771005  RH  057%=      5-min Rain = 0
KGU1 091520Z 19001KT 08/M01 A3035 RMK A01 T00761008  RH  056%=      5-min Rain = 0
KGU1 091521Z 18001KT 08/M00 A3035 RMK A01 T00781004  RH  057%=      5-min Rain = 0
KGU1 091522Z 19001KT 08/M01 A3035 RMK A01 T00791009  RH  055%=      5-min Rain = 0
KGU1 091523Z 00000KT 08/M01 A3035 RMK A01 T00791009  RH  054%=      5-min Rain = 0
KGU1 091524Z 18001KT 08/M01 A3035 RMK A01 T00801010  RH  053%=      5-min Rain = 0
KGU1 091525Z 18003KT 08/M01 A3035 RMK A01 T00801006  RH  055%=      5-min Rain = 0
KGU1 091526Z 18004KT 08/M00 A3035 RMK A01 T00801002  RH  057%=      5-min Rain = 0
KGU1 091527Z 19006KT 08/01 A3035 RMK A01 T00770006  RH  061%=      5-min Rain = 0
KGU1 091528Z 19005KT 07/01 A3035 RMK A01 T00720006  RH  064%=      5-min Rain = 0
KGU1 091529Z 18005KT 07/01 A3035 RMK A01 T00690006  RH  065%=      5-min Rain = 0
KGU1 091530Z 18005KT 07/01 A3036 RMK A01 T00690010  RH  067%=      5-min Rain = 0
KGU1 091531Z 18005KT 07/01 A3036 RMK A01 T00680011  RH  068%=      5-min Rain = 0
KGU1 091532Z 18005KT 07/01 A3036 RMK A01 T00680013  RH  069%=      5-min Rain = 0
KGU1 091533Z 19005KT 07/02 A3036 RMK A01 T00670017  RH  071%=      5-min Rain = 0
KGU1 091534Z 19005KT 07/02 A3036 RMK A01 T00670018  RH  072%=      5-min Rain = 0
KGU1 091535Z 19005KT 07/02 A3036 RMK A01 T00660021  RH  074%=      5-min Rain = 0
KGU1 091536Z 19005KT 07/02 A3036 RMK A01 T00660020  RH  073%=      5-min Rain = 0
KGU1 091537Z 19005KT 07/02 A3036 RMK A01 T00660020  RH  073%=      5-min Rain = 0
KGU1 091538Z 19005KT 07/02 A3036 RMK A01 T00660017  RH  072%=      5-min Rain = 0
KGU1 091539Z 19005KT 07/02 A3036 RMK A01 T00660019  RH  073%=      5-min Rain = 0
KGU1 091540Z 20005KT 07/02 A3036 RMK A01 T00670021  RH  074%=      5-min Rain = 0
KGU1 091541Z 20005KT 07/02 A3036 RMK A01 T00660022  RH  074%=      5-min Rain = 0
KGU1 091542Z 19005KT 07/02 A3036 RMK A01 T00670024  RH  075%=      5-min Rain = 0
KGU1 091543Z 19005KT 07/03 A3036 RMK A01 T00670025  RH  076%=      5-min Rain = 0
KGU1 091544Z 19005KT 07/02 A3036 RMK A01 T00650024  RH  076%=      5-min Rain = 0
KGU1 091545Z 19004KT 07/03 A3036 RMK A01 T00650025  RH  077%=      5-min Rain = 0
KGU1 091546Z 19004KT 07/03 A3036 RMK A01 T00670025  RH  076%=      5-min Rain = 0
KGU1 091547Z 19004KT 07/02 A3036 RMK A01 T00670020  RH  073%=      5-min Rain = 0
KGU1 091548Z 20004KT 07/02 A3036 RMK A01 T00670020  RH  073%=      5-min Rain = 0
KGU1 091549Z 20004KT 07/02 A3036 RMK A01 T00680020  RH  073%=      5-min Rain = 0
KGU1 091550Z 19004KT 07/02 A3036 RMK A01 T00680019  RH  072%=      5-min Rain = 0
KGU1 091551Z 19005KT 07/01 A3036 RMK A01 T00700014  RH  069%=      5-min Rain = 0
KGU1 091552Z 20005KT 07/01 A3036 RMK A01 T00700010  RH  067%=      5-min Rain = 0
KGU1 091553Z 19005KT 07/01 A3036 RMK A01 T00700009  RH  066%=      5-min Rain = 0
KGU1 091554Z 19005KT 07/01 A3037 RMK A01 T00710008  RH  065%=      5-min Rain = 0
KGU1 091555Z 19004KT 07/01 A3037 RMK A01 T00700010  RH  067%=      5-min Rain = 0
KGU1 091556Z 19004KT 07/01 A3037 RMK A01 T00690007  RH  065%=      5-min Rain = 0
KGU1 091557Z 20005KT 07/01 A3037 RMK A01 T00710005  RH  063%=      5-min Rain = 0
KGU1 091558Z 18004KT 07/00 A3037 RMK A01 T00730001  RH  061%=      5-min Rain = 0
KGU1 091559Z 18003KT 08/00 A3037 RMK A01 T00750000  RH  060%=      5-min Rain = 0
KGU1 091600Z 19004KT 08/00 A3037 RMK A01 T00760000  RH  059%=      5-min Rain = 0
KGU1 091601Z 19003KT 08/00 A3037 RMK A01 T007700-0  RH  059%=      5-min Rain = 0
KGU1 091602Z 20003KT 08/M01 A3037 RMK A01 T00791006  RH  056%=      5-min Rain = 0
KGU1 091603Z 20004KT 08/M00 A3037 RMK A01 T00801003  RH  056%=      5-min Rain = 0
KGU1 091604Z 20004KT 08/00 A3037 RMK A01 T00800003  RH  059%=      5-min Rain = 0
KGU1 091605Z 20004KT 08/01 A3037 RMK A01 T00800011  RH  063%=      5-min Rain = 0
KGU1 091606Z 19004KT 08/02 A3037 RMK A01 T00780016  RH  066%=      5-min Rain = 0
KGU1 091607Z 20005KT 08/02 A3037 RMK A01 T00780016  RH  066%=      5-min Rain = 0
KGU1 091608Z 19005KT 08/02 A3037 RMK A01 T00770016  RH  066%=      5-min Rain = 0
KGU1 091609Z 19004KT 08/02 A3037 RMK A01 T00790017  RH  066%=      5-min Rain = 0
KGU1 091610Z 19005KT 08/01 A3037 RMK A01 T00780008  RH  062%=      5-min Rain = 0
KGU1 091611Z 20003KT 08/00 A3037 RMK A01 T00770004  RH  061%=      5-min Rain = 0
KGU1 091612Z 20003KT 08/00 A3037 RMK A01 T00770001  RH  059%=      5-min Rain = 0
KGU1 091613Z 19003KT 08/00 A3037 RMK A01 T00790000  RH  058%=      5-min Rain = 0
KGU1 091614Z 19004KT 08/M00 A3037 RMK A01 T00791002  RH  057%=      5-min Rain = 0
KGU1 091615Z 20005KT 08/M00 A3037 RMK A01 T00801001  RH  057%=      5-min Rain = 0
KGU1 091616Z 19004KT 08/M01 A3037 RMK A01 T00791006  RH  055%=      5-min Rain = 0
KGU1 091617Z 20003KT 08/M00 A3037 RMK A01 T00791004  RH  056%=      5-min Rain = 0
KGU1 091618Z 19003KT 08/M00 A3037 RMK A01 T00811002  RH  057%=      5-min Rain = 0
KGU1 091619Z 19003KT 08/M01 A3037 RMK A01 T00821006  RH  055%=      5-min Rain = 0
KGU1 091620Z 19004KT 08/M00 A3037 RMK A01 T00821002  RH  056%=      5-min Rain = 0
KGU1 091621Z 20004KT 08/M00 A3037 RMK A01 T00831004  RH  055%=      5-min Rain = 0
KGU1 091622Z 19005KT 08/M00 A3037 RMK A01 T00831003  RH  055%=      5-min Rain = 0
KGU1 091623Z 18005KT 08/M00 A3037 RMK A01 T00831002  RH  056%=      5-min Rain = 0
KGU1 091624Z 17005KT 08/M00 A3037 RMK A01 T00841002  RH  056%=      5-min Rain = 0
KGU1 091625Z 16006KT 08/M01 A3037 RMK A01 T00841006  RH  054%=      5-min Rain = 0
KGU1 091626Z 14005KT 08/M01 A3037 RMK A01 T00841005  RH  054%=      5-min Rain = 0
KGU1 091627Z 13004KT 08/M01 A3037 RMK A01 T00811007  RH  054%=      5-min Rain = 0
KGU1 091628Z 17002KT 08/M00 A3037 RMK A01 T00821004  RH  055%=      5-min Rain = 0
KGU1 091629Z 17002KT 08/M00 A3037 RMK A01 T00831001  RH  056%=      5-min Rain = 0
KGU1 091630Z 16005KT 09/00 A3037 RMK A01 T00850003  RH  057%=      5-min Rain = 0
KGU1 091631Z 16005KT 09/01 A3037 RMK A01 T00850006  RH  058%=      5-min Rain = 0
KGU1 091632Z 15005KT 09/01 A3037 RMK A01 T00860006  RH  058%=      5-min Rain = 0
KGU1 091633Z 14005KT 09/01 A3037 RMK A01 T00860005  RH  058%=      5-min Rain = 0
KGU1 091634Z 14003KT 09/00 A3037 RMK A01 T008500-0  RH  056%=      5-min Rain = 0
KGU1 091635Z 16003KT 09/01 A3037 RMK A01 T00860007  RH  058%=      5-min Rain = 0
KGU1 091636Z 19004KT 09/01 A3037 RMK A01 T00850005  RH  057%=      5-min Rain = 0
KGU1 091637Z 20003KT 08/00 A3037 RMK A01 T00830001  RH  057%=      5-min Rain = 0
KGU1 091638Z 18002KT 08/01 A3037 RMK A01 T00840005  RH  058%=      5-min Rain = 0
KGU1 091639Z 17004KT 08/00 A3037 RMK A01 T00840004  RH  058%=      5-min Rain = 0
KGU1 091640Z 16003KT 09/01 A3037 RMK A01 T00850007  RH  059%=      5-min Rain = 0
KGU1 091641Z 13003KT 09/01 A3037 RMK A01 T00860008  RH  059%=      5-min Rain = 0
KGU1 091642Z 17004KT 09/01 A3037 RMK A01 T00860011  RH  060%=      5-min Rain = 0
KGU1 091643Z 17003KT 09/01 A3037 RMK A01 T00880011  RH  060%=      5-min Rain = 0
KGU1 091644Z 19006KT 09/02 A3037 RMK A01 T00880017  RH  062%=      5-min Rain = 0
KGU1 091645Z 19006KT 09/02 A3037 RMK A01 T00860016  RH  062%=      5-min Rain = 0
KGU1 091646Z 19006KT 08/01 A3037 RMK A01 T00840014  RH  062%=      5-min Rain = 0
KGU1 091647Z 19004KT 08/01 A3037 RMK A01 T00830012  RH  062%=      5-min Rain = 0
KGU1 091648Z 16005KT 08/01 A3037 RMK A01 T00840012  RH  061%=      5-min Rain = 0
KGU1 091649Z 16007KT 08/02 A3037 RMK A01 T00840015  RH  063%=      5-min Rain = 0
KGU1 091650Z 16006KT 08/01 A3037 RMK A01 T00830009  RH  061%=      5-min Rain = 0
KGU1 091651Z 16004KT 08/01 A3037 RMK A01 T00800008  RH  061%=      5-min Rain = 0
KGU1 091652Z 17005KT 08/01 A3037 RMK A01 T00800013  RH  063%=      5-min Rain = 0
KGU1 091653Z 18005KT 08/01 A3037 RMK A01 T00820010  RH  062%=      5-min Rain = 0
KGU1 091654Z 17005KT 08/01 A3037 RMK A01 T00820013  RH  062%=      5-min Rain = 0
KGU1 091655Z 18004KT 08/01 A3037 RMK A01 T00830011  RH  061%=      5-min Rain = 0
KGU1 091656Z 19003KT 08/01 A3037 RMK A01 T00840014  RH  062%=      5-min Rain = 0
KGU1 091657Z 17005KT 09/01 A3037 RMK A01 T00850014  RH  062%=      5-min Rain = 0
KGU1 091658Z 18005KT 08/01 A3037 RMK A01 T00840013  RH  062%=      5-min Rain = 0
KGU1 091659Z 19005KT 08/01 A3037 RMK A01 T00810010  RH  062%=      5-min Rain = 0
KGU1 091700Z 18004KT 08/01 A3037 RMK A01 T00800010  RH  062%=      5-min Rain = 0
KGU1 091701Z 19006KT 08/02 A3037 RMK A01 T00830017  RH  064%=      5-min Rain = 0
KGU1 091702Z 18005KT 09/01 A3037 RMK A01 T00850014  RH  062%=      5-min Rain = 0
KGU1 091703Z 19006KT 08/01 A3037 RMK A01 T00840010  RH  060%=      5-min Rain = 0
KGU1 091704Z 18006KT 08/01 A3037 RMK A01 T00820010  RH  061%=      5-min Rain = 0
KGU1 091705Z 19006KT 08/01 A3037 RMK A01 T00820011  RH  062%=      5-min Rain = 0
KGU1 091706Z 17004KT 08/01 A3037 RMK A01 T00840013  RH  062%=      5-min Rain = 0
KGU1 091707Z 18003KT 08/01 A3037 RMK A01 T00840012  RH  061%=      5-min Rain = 0
KGU1 091708Z 17002KT 09/01 A3037 RMK A01 T00850013  RH  061%=      5-min Rain = 0
KGU1 091709Z 14005KT 09/01 A3037 RMK A01 T00860014  RH  062%=      5-min Rain = 0
KGU1 091710Z 15004KT 09/01 A3037 RMK A01 T00860013  RH  061%=      5-min Rain = 0
KGU1 091711Z 14003KT 09/01 A3037 RMK A01 T00860014  RH  062%=      5-min Rain = 0
KGU1 091712Z 16002KT 09/01 A3037 RMK A01 T00870014  RH  061%=      5-min Rain = 0
KGU1 091713Z 16004KT 09/02 A3037 RMK A01 T00880016  RH  062%=      5-min Rain = 0
KGU1 091714Z 15004KT 09/01 A3037 RMK A01 T00860013  RH  061%=      5-min Rain = 0
KGU1 091715Z 15003KT 09/01 A3037 RMK A01 T00850014  RH  062%=      5-min Rain = 0
KGU1 091716Z 14003KT 08/01 A3037 RMK A01 T00840012  RH  061%=      5-min Rain = 0
KGU1 091717Z 16003KT 08/01 A3037 RMK A01 T00840011  RH  061%=      5-min Rain = 0
KGU1 091718Z 15003KT 08/01 A3037 RMK A01 T00830012  RH  062%=      5-min Rain = 0
KGU1 091719Z 15002KT 08/01 A3037 RMK A01 T00840014  RH  062%=      5-min Rain = 0
KGU1 091720Z 14004KT 09/02 A3037 RMK A01 T00850017  RH  063%=      5-min Rain = 0
KGU1 091721Z 16004KT 09/02 A3037 RMK A01 T00880020  RH  063%=      5-min Rain = 0
KGU1 091722Z 15002KT 09/02 A3037 RMK A01 T00900019  RH  062%=      5-min Rain = 0
KGU1 091723Z 15004KT 09/02 A3037 RMK A01 T00910016  RH  060%=      5-min Rain = 0
KGU1 091724Z 14005KT 09/02 A3037 RMK A01 T00920020  RH  062%=      5-min Rain = 0
KGU1 091725Z 14005KT 09/02 A3037 RMK A01 T00900016  RH  061%=      5-min Rain = 0
KGU1 091726Z 15004KT 09/01 A3037 RMK A01 T00870014  RH  061%=      5-min Rain = 0
KGU1 091727Z 17003KT 09/02 A3037 RMK A01 T00850015  RH  062%=      5-min Rain = 0
KGU1 091728Z 15003KT 09/02 A3037 RMK A01 T00860017  RH  063%=      5-min Rain = 0
KGU1 091729Z 17002KT 09/02 A3037 RMK A01 T00880019  RH  063%=      5-min Rain = 0
KGU1 091730Z 18004KT 09/02 A3037 RMK A01 T00900023  RH  064%=      5-min Rain = 0
KGU1 091731Z 19005KT 09/02 A3037 RMK A01 T00910021  RH  062%=      5-min Rain = 0
KGU1 091732Z 17006KT 09/03 A3037 RMK A01 T00900029  RH  067%=      5-min Rain = 0
KGU1 091733Z 20006KT 09/03 A3037 RMK A01 T00900031  RH  068%=      5-min Rain = 0
KGU1 091734Z 18005KT 09/03 A3037 RMK A01 T00890025  RH  066%=      5-min Rain = 0
KGU1 091735Z 17007KT 09/03 A3037 RMK A01 T00860027  RH  068%=      5-min Rain = 0
KGU1 091736Z 18004KT 09/03 A3037 RMK A01 T00850030  RH  069%=      5-min Rain = 0
KGU1 091737Z 17007KT 09/03 A3037 RMK A01 T00860031  RH  069%=      5-min Rain = 0
KGU1 091738Z 17006KT 09/03 A3037 RMK A01 T00850027  RH  068%=      5-min Rain = 0
KGU1 091739Z 17006KT 08/03 A3037 RMK A01 T00830027  RH  069%=      5-min Rain = 0
KGU1 091740Z 17006KT 08/03 A3037 RMK A01 T00830028  RH  069%=      5-min Rain = 0
KGU1 091741Z 17005KT 08/03 A3037 RMK A01 T00840026  RH  068%=      5-min Rain = 0
KGU1 091742Z 18006KT 09/03 A3037 RMK A01 T00850025  RH  067%=      5-min Rain = 0
KGU1 091743Z 17005KT 09/02 A3037 RMK A01 T00850021  RH  065%=      5-min Rain = 0
KGU1 091744Z 15006KT 09/02 A3037 RMK A01 T00850019  RH  064%=      5-min Rain = 0
KGU1 091745Z 16005KT 09/02 A3037 RMK A01 T00860021  RH  065%=      5-min Rain = 0
KGU1 091746Z 15005KT 09/02 A3037 RMK A01 T00870020  RH  064%=      5-min Rain = 0
KGU1 091747Z 14006KT 08/02 A3037 RMK A01 T00840016  RH  063%=      5-min Rain = 0
KGU1 091748Z 15003KT 08/02 A3037 RMK A01 T00820017  RH  064%=      5-min Rain = 0
KGU1 091749Z 17003KT 08/02 A3037 RMK A01 T00810017  RH  065%=      5-min Rain = 0
KGU1 091750Z 14005KT 08/02 A3037 RMK A01 T00840023  RH  067%=      5-min Rain = 0
KGU1 091751Z 14006KT 09/03 A3037 RMK A01 T00870025  RH  066%=      5-min Rain = 0
KGU1 091752Z 13004KT 09/02 A3037 RMK A01 T00860020  RH  064%=      5-min Rain = 0
KGU1 091753Z 12003KT 08/02 A3037 RMK A01 T00840020  RH  065%=      5-min Rain = 0
KGU1 091754Z 12004KT 09/02 A3037 RMK A01 T00850022  RH  065%=      5-min Rain = 0
KGU1 091755Z 08002KT 09/02 A3037 RMK A01 T00870020  RH  064%=      5-min Rain = 0
KGU1 091756Z 17002KT 09/02 A3037 RMK A01 T00870021  RH  064%=      5-min Rain = 0
KGU1 091757Z 18003KT 09/02 A3037 RMK A01 T00890020  RH  063%=      5-min Rain = 0
KGU1 091758Z 18002KT 09/02 A3037 RMK A01 T00880020  RH  063%=      5-min Rain = 0
KGU1 091759Z 16004KT 09/02 A3037 RMK A01 T00900024  RH  065%=      5-min Rain = 0
KGU1 091800Z 16005KT 09/03 A3037 RMK A01 T00910028  RH  066%=      5-min Rain = 0
KGU1 091801Z 14003KT 09/03 A3037 RMK A01 T00930031  RH  066%=      5-min Rain = 0
KGU1 091802Z 10006KT 10/03 A3037 RMK A01 T00950029  RH  065%=      5-min Rain = 0
KGU1 091803Z 07005KT 09/03 A3037 RMK A01 T00900028  RH  066%=      5-min Rain = 0
KGU1 091804Z 16004KT 09/03 A3036 RMK A01 T00870030  RH  068%=      5-min Rain = 0
KGU1 091805Z 15006KT 09/03 A3037 RMK A01 T00890030  RH  068%=      5-min Rain = 0
KGU1 091806Z 14006KT 09/03 A3037 RMK A01 T00900033  RH  069%=      5-min Rain = 0
KGU1 091807Z 14006KT 09/03 A3036 RMK A01 T00900033  RH  069%=      5-min Rain = 0
KGU1 091808Z 14007KT 09/03 A3036 RMK A01 T00910033  RH  068%=      5-min Rain = 0
KGU1 091809Z 17008KT 09/03 A3036 RMK A01 T00900033  RH  068%=      5-min Rain = 0
KGU1 091810Z 15008KT 09/03 A3036 RMK A01 T00870030  RH  069%=      5-min Rain = 0
KGU1 091811Z 16008KT 08/03 A3036 RMK A01 T00840029  RH  070%=      5-min Rain = 0
KGU1 091812Z 16006KT 08/03 A3036 RMK A01 T00830029  RH  070%=      5-min Rain = 0
KGU1 091813Z 17006KT 09/03 A3036 RMK A01 T00850031  RH  070%=      5-min Rain = 0
KGU1 091814Z 18007KT 09/03 A3036 RMK A01 T00860032  RH  070%=      5-min Rain = 0
KGU1 091815Z 17007KT 08/03 A3036 RMK A01 T00840030  RH  070%=      5-min Rain = 0
KGU1 091816Z 18007KT 08/03 A3036 RMK A01 T00820030  RH  071%=      5-min Rain = 0
KGU1 091817Z 21005KT 08/03 A3036 RMK A01 T00820030  RH  071%=      5-min Rain = 0
KGU1 091818Z 20006KT 09/03 A3036 RMK A01 T00850033  RH  071%=      5-min Rain = 0
KGU1 091819Z 18007KT 09/03 A3036 RMK A01 T00870033  RH  070%=      5-min Rain = 0
KGU1 091820Z 17009KT 09/03 A3036 RMK A01 T00850033  RH  071%=      5-min Rain = 0
KGU1 091821Z 18009KT 09/03 A3036 RMK A01 T00860034  RH  071%=      5-min Rain = 0
KGU1 091822Z 17008KT 09/03 A3036 RMK A01 T00850032  RH  071%=      5-min Rain = 0
KGU1 091823Z 17008KT 08/03 A3036 RMK A01 T00820030  RH  071%=      5-min Rain = 0
KGU1 091824Z 18007KT 08/03 A3036 RMK A01 T00800031  RH  072%=      5-min Rain = 0
KGU1 091825Z 17007KT 08/03 A3036 RMK A01 T00820033  RH  072%=      5-min Rain = 0
KGU1 091826Z 18009KT 08/03 A3036 RMK A01 T00830032  RH  071%=      5-min Rain = 0
KGU1 091827Z 19009KT 08/03 A3036 RMK A01 T00800029  RH  071%=      5-min Rain = 0
KGU1 091828Z 18008KT 08/03 A3036 RMK A01 T00800034  RH  074%=      5-min Rain = 0
KGU1 091829Z 18007KT 08/03 A3036 RMK A01 T00800031  RH  073%=      5-min Rain = 0
KGU1 091830Z 19007KT 08/03 A3036 RMK A01 T00780029  RH  072%=      5-min Rain = 0
KGU1 091831Z 18007KT 08/04 A3036 RMK A01 T00820036  RH  074%=      5-min Rain = 0
KGU1 091832Z 20007KT 09/04 A3036 RMK A01 T00850036  RH  072%=      5-min Rain = 0
KGU1 091833Z 20006KT 09/04 A3035 RMK A01 T00880035  RH  070%=      5-min Rain = 0
KGU1 091834Z 21007KT 09/03 A3035 RMK A01 T00890033  RH  069%=      5-min Rain = 0
KGU1 091835Z 19008KT 09/03 A3035 RMK A01 T00860032  RH  070%=      5-min Rain = 0
KGU1 091836Z 19008KT 08/03 A3035 RMK A01 T00830032  RH  072%=      5-min Rain = 0
KGU1 091837Z 19006KT 08/03 A3035 RMK A01 T00810032  RH  072%=      5-min Rain = 0
KGU1 091838Z 18007KT 08/04 A3035 RMK A01 T00840036  RH  073%=      5-min Rain = 0
KGU1 091839Z 19005KT 09/03 A3035 RMK A01 T00850032  RH  071%=      5-min Rain = 0
KGU1 091840Z 20006KT 08/03 A3035 RMK A01 T00840034  RH  072%=      5-min Rain = 0
KGU1 091841Z 21005KT 09/03 A3035 RMK A01 T00860031  RH  070%=      5-min Rain = 0
KGU1 091842Z 21006KT 09/03 A3035 RMK A01 T00860032  RH  070%=      5-min Rain = 0
KGU1 091843Z 20009KT 09/03 A3035 RMK A01 T00880032  RH  069%=      5-min Rain = 0
KGU1 091844Z 20007KT 09/03 A3035 RMK A01 T00870033  RH  070%=      5-min Rain = 0
KGU1 091845Z 19008KT 09/04 A3035 RMK A01 T00890037  RH  071%=      5-min Rain = 0
KGU1 091846Z 21007KT 09/03 A3035 RMK A01 T00860033  RH  071%=      5-min Rain = 0
KGU1 091847Z 20006KT 08/03 A3035 RMK A01 T00840031  RH  071%=      5-min Rain = 0
KGU1 091848Z 21006KT 09/04 A3035 RMK A01 T00860036  RH  072%=      5-min Rain = 0
KGU1 091849Z 21007KT 09/03 A3035 RMK A01 T00870034  RH  071%=      5-min Rain = 0
KGU1 091850Z 22004KT 08/03 A3034 RMK A01 T00830030  RH  070%=      5-min Rain = 0
KGU1 091851Z 20006KT 08/03 A3034 RMK A01 T00800034  RH  074%=      5-min Rain = 0
KGU1 091852Z 19008KT 08/03 A3034 RMK A01 T00780034  RH  075%=      5-min Rain = 0
KGU1 091853Z 21009KT 08/04 A3034 RMK A01 T00770035  RH  076%=      5-min Rain = 0
KGU1 091854Z 22007KT 08/03 A3034 RMK A01 T00750032  RH  075%=      5-min Rain = 0
KGU1 091855Z 21005KT 08/03 A3034 RMK A01 T00750032  RH  076%=      5-min Rain = 0
KGU1 091856Z 19006KT 08/04 A3034 RMK A01 T00800039  RH  077%=      5-min Rain = 0
KGU1 091857Z 19008KT 08/04 A3034 RMK A01 T00840037  RH  074%=      5-min Rain = 0
KGU1 091858Z 19007KT 08/03 A3034 RMK A01 T00820033  RH  072%=      5-min Rain = 0
KGU1 091859Z 19006KT 08/04 A3034 RMK A01 T00820036  RH  074%=      5-min Rain = 0
KGU1 091900Z 20006KT 09/04 A3034 RMK A01 T00850038  RH  074%=      5-min Rain = 0
KGU1 091901Z 18005KT 09/04 A3034 RMK A01 T00850035  RH  072%=      5-min Rain = 0
KGU1 091902Z 18006KT 08/04 A3034 RMK A01 T00840035  RH  073%=      5-min Rain = 0
KGU1 091903Z 18005KT 08/04 A3034 RMK A01 T00830035  RH  073%=      5-min Rain = 0
KGU1 091904Z 17007KT 08/04 A3034 RMK A01 T00840038  RH  074%=      5-min Rain = 0
KGU1 091905Z 17007KT 09/04 A3034 RMK A01 T00850036  RH  073%=      5-min Rain = 0
KGU1 091906Z 20005KT 09/04 A3034 RMK A01 T00850036  RH  073%=      5-min Rain = 0
KGU1 091907Z 19007KT 09/04 A3034 RMK A01 T00860036  RH  072%=      5-min Rain = 0
KGU1 091908Z 20007KT 08/03 A3034 RMK A01 T00820032  RH  072%=      5-min Rain = 0
KGU1 091909Z 20007KT 08/04 A3034 RMK A01 T00820036  RH  074%=      5-min Rain = 0
KGU1 091910Z 19007KT 09/04 A3034 RMK A01 T00850035  RH  072%=      5-min Rain = 0
KGU1 091911Z 19006KT 08/03 A3034 RMK A01 T00840034  RH  072%=      5-min Rain = 0
KGU1 091912Z 19006KT 08/03 A3034 RMK A01 T00840032  RH  071%=      5-min Rain = 0
KGU1 091913Z 20007KT 08/04 A3034 RMK A01 T00840035  RH  073%=      5-min Rain = 0
KGU1 091914Z 18006KT 09/04 A3034 RMK A01 T00860036  RH  072%=      5-min Rain = 0
KGU1 091915Z 19005KT 08/03 A3034 RMK A01 T00820034  RH  073%=      5-min Rain = 0
KGU1 091916Z 18006KT 08/04 A3033 RMK A01 T00830036  RH  073%=      5-min Rain = 0
KGU1 091917Z 20005KT 08/03 A3033 RMK A01 T00820033  RH  073%=      5-min Rain = 0
KGU1 091918Z 18007KT 08/04 A3033 RMK A01 T00820035  RH  073%=      5-min Rain = 0
KGU1 091919Z 17006KT 08/04 A3033 RMK A01 T00830035  RH  073%=      5-min Rain = 0
KGU1 091920Z 17007KT 08/04 A3033 RMK A01 T00830035  RH  073%=      5-min Rain = 0
KGU1 091921Z 19009KT 09/04 A3033 RMK A01 T00850037  RH  073%=      5-min Rain = 0
KGU1 091922Z 20008KT 08/03 A3033 RMK A01 T00830034  RH  072%=      5-min Rain = 0
KGU1 091923Z 19007KT 08/04 A3033 RMK A01 T00820035  RH  073%=      5-min Rain = 0
KGU1 091924Z 18007KT 08/04 A3033 RMK A01 T00830037  RH  074%=      5-min Rain = 0
KGU1 091925Z 17006KT 08/04 A3033 RMK A01 T00830036  RH  073%=      5-min Rain = 0
KGU1 091926Z 18006KT 08/04 A3033 RMK A01 T00830035  RH  073%=      5-min Rain = 0
KGU1 091927Z 18005KT 09/04 A3033 RMK A01 T00850039  RH  074%=      5-min Rain = 0
KGU1 091928Z 17007KT 09/04 A3033 RMK A01 T00880035  RH  071%=      5-min Rain = 0
KGU1 091929Z 18007KT 08/03 A3033 RMK A01 T00830030  RH  070%=      5-min Rain = 0
KGU1 091930Z 19008KT 08/03 A3033 RMK A01 T00790029  RH  072%=      5-min Rain = 0
KGU1 091931Z 21009KT 08/03 A3033 RMK A01 T00780032  RH  074%=      5-min Rain = 0
KGU1 091932Z 21007KT 08/03 A3033 RMK A01 T00790030  RH  072%=      5-min Rain = 0
KGU1 091933Z 20008KT 08/03 A3033 RMK A01 T00820031  RH  072%=      5-min Rain = 0
KGU1 091934Z 21007KT 08/03 A3033 RMK A01 T00820030  RH  071%=      5-min Rain = 0
KGU1 091935Z 20005KT 08/03 A3033 RMK A01 T00830030  RH  070%=      5-min Rain = 0
KGU1 091936Z 20004KT 08/03 A3033 RMK A01 T00830028  RH  069%=      5-min Rain = 0
KGU1 091937Z 21006KT 08/03 A3033 RMK A01 T00840030  RH  070%=      5-min Rain = 0
KGU1 091938Z 20007KT 08/03 A3033 RMK A01 T00840029  RH  070%=      5-min Rain = 0
KGU1 091939Z 19004KT 08/03 A3033 RMK A01 T00840032  RH  071%=      5-min Rain = 0
KGU1 091940Z 18006KT 08/03 A3033 RMK A01 T00830030  RH  070%=      5-min Rain = 0
KGU1 091941Z 19005KT 08/03 A3033 RMK A01 T00810032  RH  072%=      5-min Rain = 0
KGU1 091942Z 19005KT 09/03 A3033 RMK A01 T00850034  RH  072%=      5-min Rain = 0
KGU1 091943Z 23006KT 09/03 A3033 RMK A01 T00870034  RH  070%=      5-min Rain = 0
KGU1 091944Z 21005KT 09/03 A3033 RMK A01 T00860029  RH  069%=      5-min Rain = 0
KGU1 091945Z 22005KT 09/03 A3033 RMK A01 T00850026  RH  068%=      5-min Rain = 0
KGU1 091946Z 22005KT 08/03 A3033 RMK A01 T00830028  RH  069%=      5-min Rain = 0
KGU1 091947Z 20006KT 09/03 A3033 RMK A01 T00850032  RH  070%=      5-min Rain = 0
KGU1 091948Z 22005G10KT 09/03 A3033 RMK A01 T00850031  RH  070%=      5-min Rain = 0
KGU1 091949Z 19005KT 09/03 A3033 RMK A01 T00850031  RH  070%=      5-min Rain = 0
KGU1 091950Z 18005KT 08/03 A3033 RMK A01 T00840030  RH  070%=      5-min Rain = 0
KGU1 091951Z 18005KT 08/03 A3032 RMK A01 T00820032  RH  072%=      5-min Rain = 0
KGU1 091952Z 17005KT 08/03 A3032 RMK A01 T00840033  RH  072%=      5-min Rain = 0
KGU1 091953Z 17006KT 08/03 A3032 RMK A01 T00830031  RH  071%=      5-min Rain = 0
KGU1 091954Z 16007KT 08/03 A3032 RMK A01 T00820030  RH  071%=      5-min Rain = 0
KGU1 091955Z 17007KT 08/03 A3032 RMK A01 T00830034  RH  072%=      5-min Rain = 0
KGU1 091956Z 19006KT 08/03 A3032 RMK A01 T00840033  RH  072%=      5-min Rain = 0
KGU1 091957Z 18005KT 09/04 A3032 RMK A01 T00860036  RH  072%=      5-min Rain = 0
KGU1 091958Z 16007KT 09/04 A3032 RMK A01 T00880036  RH  071%=      5-min Rain = 0
KGU1 091959Z 18006KT 09/03 A3032 RMK A01 T00850034  RH  072%=      5-min Rain = 0
KGU1 092000Z 19005KT 08/04 A3032 RMK A01 T00840036  RH  073%=      5-min Rain = 0
KGU1 092001Z 19009KT 09/04 A3032 RMK A01 T00870036  RH  072%=      5-min Rain = 0
KGU1 092002Z 20007KT 09/03 A3032 RMK A01 T00850031  RH  070%=      5-min Rain = 0
KGU1 092003Z 20005KT 08/03 A3032 RMK A01 T00830032  RH  072%=      5-min Rain = 0
KGU1 092004Z 18008KT 09/04 A3032 RMK A01 T00850035  RH  072%=      5-min Rain = 0
KGU1 092005Z 20008KT 09/03 A3032 RMK A01 T00860032  RH  070%=      5-min Rain = 0
KGU1 092006Z 20006KT 08/03 A3032 RMK A01 T00840031  RH  070%=      5-min Rain = 0
KGU1 092007Z 18007KT 09/03 A3032 RMK A01 T00850034  RH  072%=      5-min Rain = 0
KGU1 092008Z 18009KT 09/04 A3032 RMK A01 T00870035  RH  071%=      5-min Rain = 0
KGU1 092009Z 18007KT 09/03 A3032 RMK A01 T00860032  RH  070%=      5-min Rain = 0
KGU1 092010Z 17006KT 09/03 A3032 RMK A01 T00850031  RH  070%=      5-min Rain = 0
KGU1 092011Z 17004KT 08/03 A3032 RMK A01 T00820028  RH  070%=      5-min Rain = 0
KGU1 092012Z 21006KT 08/03 A3032 RMK A01 T00800030  RH  072%=      5-min Rain = 0
KGU1 092013Z 19005KT 08/03 A3032 RMK A01 T00790033  RH  074%=      5-min Rain = 0
KGU1 092014Z 20006KT 08/04 A3032 RMK A01 T00830035  RH  073%=      5-min Rain = 0
KGU1 092015Z 20009KT 09/03 A3032 RMK A01 T00850034  RH  071%=      5-min Rain = 0
KGU1 092016Z 20010KT 09/03 A3032 RMK A01 T00850033  RH  071%=      5-min Rain = 0
KGU1 092017Z 20006G11KT 08/03 A3032 RMK A01 T00790028  RH  072%=      5-min Rain = 0
KGU1 092018Z 18005KT 08/03 A3032 RMK A01 T00760030  RH  074%=      5-min Rain = 0
KGU1 092019Z 20005KT 08/03 A3032 RMK A01 T00770031  RH  074%=      5-min Rain = 0
KGU1 092020Z 21005KT 08/03 A3032 RMK A01 T00800034  RH  074%=      5-min Rain = 0
KGU1 092021Z 20004KT 09/04 A3032 RMK A01 T00860037  RH  073%=      5-min Rain = 0
KGU1 092022Z 21007KT 09/04 A3032 RMK A01 T00870035  RH  071%=      5-min Rain = 0
KGU1 092023Z 22006KT 09/03 A3032 RMK A01 T00870034  RH  071%=      5-min Rain = 0
KGU1 092024Z 21003KT 08/03 A3032 RMK A01 T00840030  RH  070%=      5-min Rain = 0
KGU1 092025Z 20006G11KT 08/03 A3032 RMK A01 T00840032  RH  071%=      5-min Rain = 0
KGU1 092026Z 22007KT 09/03 A3032 RMK A01 T00860027  RH  067%=      5-min Rain = 0
KGU1 092027Z 23007KT 09/02 A3032 RMK A01 T00880021  RH  064%=      5-min Rain = 0
KGU1 092028Z 22008KT 09/02 A3032 RMK A01 T00890017  RH  062%=      5-min Rain = 0
KGU1 092029Z 20008KT 09/03 A3032 RMK A01 T00870025  RH  066%=      5-min Rain = 0
KGU1 092030Z 20007KT 09/03 A3032 RMK A01 T00860029  RH  068%=      5-min Rain = 0
KGU1 092031Z 21007G12KT 09/03 A3032 RMK A01 T00850028  RH  069%=      5-min Rain = 0
KGU1 092032Z 19007KT 09/03 A3032 RMK A01 T00850029  RH  069%=      5-min Rain = 0
KGU1 092033Z 19006KT 09/03 A3032 RMK A01 T00850030  RH  069%=      5-min Rain = 0
KGU1 092034Z 19007KT 09/03 A3032 RMK A01 T00850028  RH  068%=      5-min Rain = 0
KGU1 092035Z 19006KT 09/03 A3032 RMK A01 T00850027  RH  068%=      5-min Rain = 0
KGU1 092036Z 22008KT 09/03 A3031 RMK A01 T00860026  RH  067%=      5-min Rain = 0
KGU1 092037Z 21006KT 09/03 A3031 RMK A01 T00860026  RH  067%=      5-min Rain = 0
KGU1 092038Z 18006KT 09/03 A3031 RMK A01 T00870029  RH  068%=      5-min Rain = 0
KGU1 092039Z 17007KT 09/03 A3031 RMK A01 T00870032  RH  069%=      5-min Rain = 0
KGU1 092040Z 17006KT 09/03 A3031 RMK A01 T00860030  RH  069%=      5-min Rain = 0
KGU1 092041Z 19007KT 09/03 A3031 RMK A01 T00860028  RH  068%=      5-min Rain = 0
KGU1 092042Z 19006KT 09/03 A3031 RMK A01 T00850026  RH  068%=      5-min Rain = 0
KGU1 092043Z 21006KT 09/03 A3031 RMK A01 T00860030  RH  069%=      5-min Rain = 0
KGU1 092044Z 19005KT 09/03 A3031 RMK A01 T00870029  RH  068%=      5-min Rain = 0
KGU1 092045Z 18006KT 09/03 A3031 RMK A01 T00870030  RH  068%=      5-min Rain = 0
KGU1 092046Z 18010KT 09/03 A3031 RMK A01 T00860030  RH  069%=      5-min Rain = 0
KGU1 092047Z 18009KT 09/03 A3031 RMK A01 T00850028  RH  069%=      5-min Rain = 0
KGU1 092048Z 18008KT 09/03 A3031 RMK A01 T00850030  RH  070%=      5-min Rain = 0
KGU1 092049Z 18008KT 09/03 A3031 RMK A01 T00850029  RH  069%=      5-min Rain = 0
KGU1 092050Z 19007KT 09/03 A3031 RMK A01 T00860029  RH  069%=      5-min Rain = 0
KGU1 092051Z 18008KT 09/03 A3031 RMK A01 T00850029  RH  069%=      5-min Rain = 0
KGU1 092052Z 18007KT 09/03 A3031 RMK A01 T00850029  RH  069%=      5-min Rain = 0
KGU1 092053Z 18008KT 09/03 A3031 RMK A01 T00880032  RH  069%=      5-min Rain = 0
KGU1 092054Z 21006KT 09/03 A3031 RMK A01 T00910029  RH  066%=      5-min Rain = 0
KGU1 092055Z 22005KT 09/03 A3031 RMK A01 T00930028  RH  065%=      5-min Rain = 0
KGU1 092056Z 21005KT 09/03 A3031 RMK A01 T00910027  RH  065%=      5-min Rain = 0
KGU1 092057Z 21003KT 09/03 A3031 RMK A01 T00890028  RH  066%=      5-min Rain = 0
KGU1 092058Z 20005KT 09/03 A3031 RMK A01 T00910032  RH  067%=      5-min Rain = 0
KGU1 092059Z 22007KT 09/03 A3031 RMK A01 T00930028  RH  065%=      5-min Rain = 0
KGU1 092100Z 21009KT 09/02 A3031 RMK A01 T00900023  RH  064%=      5-min Rain = 0
KGU1 092101Z 21008KT 09/02 A3031 RMK A01 T00890022  RH  064%=      5-min Rain = 0
KGU1 092102Z 20007KT 09/02 A3031 RMK A01 T00870022  RH  065%=      5-min Rain = 0
KGU1 092103Z 21010KT 09/03 A3031 RMK A01 T00860026  RH  067%=      5-min Rain = 0
KGU1 092104Z 21009KT 09/03 A3031 RMK A01 T00860026  RH  067%=      5-min Rain = 0
KGU1 092105Z 20008KT 08/03 A3031 RMK A01 T00840026  RH  068%=      5-min Rain = 0
KGU1 092106Z 21009KT 09/03 A3031 RMK A01 T00850027  RH  068%=      5-min Rain = 0
KGU1 092107Z 21009KT 09/03 A3031 RMK A01 T00860026  RH  067%=      5-min Rain = 0
KGU1 092108Z 21006KT 09/02 A3031 RMK A01 T00860021  RH  065%=      5-min Rain = 0
KGU1 092109Z 19006KT 09/02 A3031 RMK A01 T00860020  RH  064%=      5-min Rain = 0
KGU1 092110Z 20007KT 09/02 A3031 RMK A01 T00860023  RH  066%=      5-min Rain = 0
KGU1 092111Z 18007KT 09/03 A3031 RMK A01 T00870029  RH  068%=      5-min Rain = 0
KGU1 092112Z 19009KT 09/03 A3031 RMK A01 T00890030  RH  067%=      5-min Rain = 0
KGU1 092113Z 20008KT 09/03 A3031 RMK A01 T00880028  RH  067%=      5-min Rain = 0
KGU1 092114Z 19007KT 09/03 A3031 RMK A01 T00850027  RH  068%=      5-min Rain = 0
KGU1 092115Z 20004KT 08/03 A3031 RMK A01 T00840027  RH  068%=      5-min Rain = 0
KGU1 092116Z 17005KT 09/03 A3031 RMK A01 T00850029  RH  069%=      5-min Rain = 0
KGU1 092117Z 16004KT 09/03 A3031 RMK A01 T00870029  RH  068%=      5-min Rain = 0
KGU1 092118Z 16007KT 09/03 A3031 RMK A01 T00880030  RH  068%=      5-min Rain = 0
KGU1 092119Z 17008KT 09/03 A3031 RMK A01 T00880032  RH  069%=      5-min Rain = 0
KGU1 092120Z 18008KT 09/03 A3031 RMK A01 T00910032  RH  068%=      5-min Rain = 0
KGU1 092121Z 19008KT 09/03 A3031 RMK A01 T00900029  RH  067%=      5-min Rain = 0
KGU1 092122Z 18007KT 09/03 A3031 RMK A01 T00860026  RH  067%=      5-min Rain = 0
KGU1 092123Z 20006KT 09/03 A3031 RMK A01 T00870029  RH  068%=      5-min Rain = 0
KGU1 092124Z 19006KT 09/03 A3031 RMK A01 T00880028  RH  067%=      5-min Rain = 0
KGU1 092125Z 20006KT 09/03 A3031 RMK A01 T00890025  RH  065%=      5-min Rain = 0
KGU1 092126Z 18005KT 09/02 A3031 RMK A01 T00900024  RH  064%=      5-min Rain = 0
KGU1 092127Z 17008G13KT 09/03 A3031 RMK A01 T00890026  RH  066%=      5-min Rain = 0
KGU1 092128Z 19009KT 09/03 A3031 RMK A01 T00890028  RH  067%=      5-min Rain = 0
KGU1 092129Z 19006KT 09/03 A3031 RMK A01 T00870026  RH  066%=      5-min Rain = 0
KGU1 092130Z 18008KT 09/03 A3031 RMK A01 T00860027  RH  067%=      5-min Rain = 0
KGU1 092131Z 20008KT 09/03 A3031 RMK A01 T00890027  RH  066%=      5-min Rain = 0
KGU1 092132Z 21009KT 09/02 A3031 RMK A01 T00890023  RH  065%=      5-min Rain = 0
KGU1 092133Z 19007KT 09/03 A3031 RMK A01 T00890025  RH  065%=      5-min Rain = 0
KGU1 092134Z 17009KT 09/03 A3031 RMK A01 T00890029  RH  067%=      5-min Rain = 0
KGU1 092135Z 17008KT 09/03 A3031 RMK A01 T00890026  RH  066%=      5-min Rain = 0
KGU1 092136Z 17007KT 09/03 A3031 RMK A01 T00870027  RH  067%=      5-min Rain = 0
KGU1 092137Z 18009KT 09/03 A3031 RMK A01 T00880028  RH  068%=      5-min Rain = 0
KGU1 092138Z 18009KT 09/03 A3031 RMK A01 T00880025  RH  065%=      5-min Rain = 0
KGU1 092139Z 18008KT 09/02 A3031 RMK A01 T00880020  RH  063%=      5-min Rain = 0
KGU1 092140Z 18007KT 09/02 A3031 RMK A01 T00880022  RH  064%=      5-min Rain = 0
KGU1 092141Z 18007KT 09/03 A3031 RMK A01 T00880025  RH  066%=      5-min Rain = 0
KGU1 092142Z 20006KT 09/02 A3031 RMK A01 T00890023  RH  064%=      5-min Rain = 0
KGU1 092143Z 18006KT 09/02 A3031 RMK A01 T00920020  RH  061%=      5-min Rain = 0
KGU1 092144Z 17009KT 09/01 A3031 RMK A01 T00930012  RH  058%=      5-min Rain = 0
KGU1 092145Z 18009KT 09/01 A3031 RMK A01 T00910007  RH  056%=      5-min Rain = 0
KGU1 092146Z 19007KT 09/01 A3031 RMK A01 T00890009  RH  058%=      5-min Rain = 0
KGU1 092147Z 19006KT 09/01 A3031 RMK A01 T00880012  RH  060%=      5-min Rain = 0
KGU1 092148Z 17008KT 09/02 A3031 RMK A01 T00890015  RH  061%=      5-min Rain = 0
KGU1 092149Z 19009KT 09/02 A3031 RMK A01 T00890020  RH  063%=      5-min Rain = 0
KGU1 092150Z 20009KT 09/02 A3031 RMK A01 T00890023  RH  065%=      5-min Rain = 0
KGU1 092151Z 19008KT 09/02 A3031 RMK A01 T00880021  RH  064%=      5-min Rain = 0
KGU1 092152Z 19007KT 09/02 A3031 RMK A01 T00870015  RH  062%=      5-min Rain = 0
KGU1 092153Z 18008KT 09/02 A3031 RMK A01 T00870020  RH  064%=      5-min Rain = 0
KGU1 092154Z 18009KT 09/02 A3031 RMK A01 T00880018  RH  063%=      5-min Rain = 0
KGU1 092155Z 19009KT 09/02 A3031 RMK A01 T00870015  RH  062%=      5-min Rain = 0
KGU1 092156Z 20010KT 09/02 A3031 RMK A01 T00870016  RH  062%=      5-min Rain = 0
KGU1 092157Z 19010KT 09/01 A3031 RMK A01 T00850014  RH  062%=      5-min Rain = 0
KGU1 092158Z 20009KT 08/01 A3031 RMK A01 T00840010  RH  060%=      5-min Rain = 0
KGU1 092159Z 21008KT 09/01 A3031 RMK A01 T00850011  RH  061%=      5-min Rain = 0
KGU1 092200Z 20007KT 09/01 A3031 RMK A01 T00850013  RH  061%=      5-min Rain = 0
KGU1 092201Z 20008KT 09/01 A3031 RMK A01 T00850011  RH  061%=      5-min Rain = 0
KGU1 092202Z 20008KT 09/01 A3031 RMK A01 T00850011  RH  061%=      5-min Rain = 0
KGU1 092203Z 18007KT 09/01 A3031 RMK A01 T00860010  RH  059%=      5-min Rain = 0
KGU1 092204Z 19007KT 09/01 A3031 RMK A01 T00860009  RH  059%=      5-min Rain = 0
KGU1 092205Z 19009KT 09/01 A3031 RMK A01 T00870011  RH  060%=      5-min Rain = 0
KGU1 092206Z 18009KT 09/01 A3031 RMK A01 T00860009  RH  059%=      5-min Rain = 0
KGU1 092207Z 19007KT 09/01 A3031 RMK A01 T00850007  RH  059%=      5-min Rain = 0
KGU1 092208Z 19007KT 09/01 A3031 RMK A01 T00850005  RH  058%=      5-min Rain = 0
KGU1 092209Z 19006KT 09/00 A3031 RMK A01 T00850003  RH  057%=      5-min Rain = 0
KGU1 092210Z 18007KT 09/00 A3031 RMK A01 T00860002  RH  056%=      5-min Rain = 0
KGU1 092211Z 19009KT 09/00 A3031 RMK A01 T00870004  RH  057%=      5-min Rain = 0
KGU1 092212Z 19007KT 09/00 A3031 RMK A01 T00870003  RH  056%=      5-min Rain = 0
KGU1 092213Z 19007KT 09/00 A3031 RMK A01 T00880004  RH  057%=      5-min Rain = 0
KGU1 092214Z 19008KT 09/00 A3031 RMK A01 T00890003  RH  055%=      5-min Rain = 0
KGU1 092215Z 19010KT 09/M01 A3031 RMK A01 T00881012  RH  050%=      5-min Rain = 0
KGU1 092216Z 18010KT 09/M01 A3031 RMK A01 T00871013  RH  050%=      5-min Rain = 0
KGU1 092217Z 18008KT 09/M01 A3031 RMK A01 T00871013  RH  050%=      5-min Rain = 0
KGU1 092218Z 19008KT 09/M01 A3031 RMK A01 T00871011  RH  051%=      5-min Rain = 0
KGU1 092219Z 20010KT 09/M01 A3031 RMK A01 T00871013  RH  050%=      5-min Rain = 0
KGU1 092220Z 19008KT 09/M02 A3031 RMK A01 T00861018  RH  048%=      5-min Rain = 0
KGU1 092221Z 20009KT 09/M02 A3031 RMK A01 T00851020  RH  048%=      5-min Rain = 0
KGU1 092222Z 20009KT 09/M02 A3031 RMK A01 T00861019  RH  048%=      5-min Rain = 0
KGU1 092223Z 19009KT 09/M02 A3031 RMK A01 T00871021  RH  047%=      5-min Rain = 0
KGU1 092224Z 18009KT 09/M02 A3031 RMK A01 T00881023  RH  046%=      5-min Rain = 0
KGU1 092225Z 20008KT 09/M03 A3031 RMK A01 T00871027  RH  045%=      5-min Rain = 0
KGU1 092226Z 19006KT 09/M03 A3031 RMK A01 T00871027  RH  045%=      5-min Rain = 0
KGU1 092227Z 19008KT 09/M03 A3031 RMK A01 T00871025  RH  046%=      5-min Rain = 0
KGU1 092228Z 20008KT 09/M02 A3031 RMK A01 T00871021  RH  047%=      5-min Rain = 0
KGU1 092229Z 19008KT 09/M02 A3031 RMK A01 T00871016  RH  049%=      5-min Rain = 0
KGU1 092230Z 17007KT 09/M02 A3031 RMK A01 T00871015  RH  049%=      5-min Rain = 0
KGU1 092231Z 17006KT 09/M01 A3031 RMK A01 T00871013  RH  050%=      5-min Rain = 0
KGU1 092232Z 20005KT 09/M01 A3031 RMK A01 T00881010  RH  051%=      5-min Rain = 0
KGU1 092233Z 18006KT 09/M01 A3031 RMK A01 T00891006  RH  052%=      5-min Rain = 0
KGU1 092234Z 17006KT 09/00 A3031 RMK A01 T008900-0  RH  054%=      5-min Rain = 0
KGU1 092235Z 18004KT 09/00 A3031 RMK A01 T00900002  RH  054%=      5-min Rain = 0
KGU1 092236Z 18006KT 09/00 A3031 RMK A01 T009100-0  RH  053%=      5-min Rain = 0
KGU1 092237Z 18006KT 09/M00 A3031 RMK A01 T00891004  RH  052%=      5-min Rain = 0
KGU1 092238Z 19005KT 09/M00 A3031 RMK A01 T00881003  RH  053%=      5-min Rain = 0
KGU1 092239Z 20005KT 09/M00 A3031 RMK A01 T00881002  RH  054%=      5-min Rain = 0
KGU1 092240Z 20006KT 09/M00 A3031 RMK A01 T00881001  RH  054%=      5-min Rain = 0
KGU1 092241Z 18007KT 09/M00 A3031 RMK A01 T00881001  RH  054%=      5-min Rain = 0
KGU1 092242Z 18005KT 09/M00 A3031 RMK A01 T00871002  RH  054%=      5-min Rain = 0
KGU1 092243Z 19004KT 09/M00 A3031 RMK A01 T00871001  RH  055%=      5-min Rain = 0
KGU1 092244Z 17006KT 09/00 A3031 RMK A01 T00880002  RH  055%=      5-min Rain = 0
KGU1 092245Z 16006KT 09/00 A3031 RMK A01 T00880000  RH  055%=      5-min Rain = 0
KGU1 092246Z 14006KT 09/M00 A3031 RMK A01 T00861002  RH  054%=      5-min Rain = 0
KGU1 092247Z 09003KT 08/02 A3031 RMK A01 T00840016  RH  063%=      5-min Rain = 0
KGU1 092248Z 09004KT 08/03 A3031 RMK A01 T00800026  RH  070%=      5-min Rain = 0
KGU1 092249Z 08005KT 08/03 A3031 RMK A01 T00760026  RH  072%=      5-min Rain = 0
KGU1 092250Z 09004KT 07/03 A3032 RMK A01 T00740026  RH  073%=      5-min Rain = 0
KGU1 092251Z 09003KT 07/03 A3032 RMK A01 T00730027  RH  074%=      5-min Rain = 0
KGU1 092252Z 10004KT 07/03 A3032 RMK A01 T00730027  RH  074%=      5-min Rain = 0
KGU1 092253Z 07003KT 07/03 A3032 RMK A01 T00730026  RH  073%=      5-min Rain = 0
KGU1 092254Z 05004KT 07/03 A3032 RMK A01 T00730027  RH  074%=      5-min Rain = 0
KGU1 092255Z 04004KT 07/03 A3032 RMK A01 T00720028  RH  075%=      5-min Rain = 0
KGU1 092256Z 05004KT 07/03 A3032 RMK A01 T00710029  RH  076%=      5-min Rain = 0
KGU1 092257Z 05006KT 07/03 A3032 RMK A01 T00700029  RH  076%=      5-min Rain = 0
KGU1 092258Z 05004KT 07/03 A3032 RMK A01 T00690028  RH  077%=      5-min Rain = 0
KGU1 092259Z 04005KT 07/03 A3032 RMK A01 T00680028  RH  077%=      5-min Rain = 0
KGU1 092300Z 04004KT 07/03 A3032 RMK A01 T00670028  RH  078%=      5-min Rain = 0
KGU1 092301Z 04004KT 07/03 A3032 RMK A01 T00670029  RH  078%=      5-min Rain = 0
KGU1 092302Z 06004KT 07/03 A3032 RMK A01 T00660029  RH  078%=      5-min Rain = 0
KGU1 092303Z 07003KT 07/03 A3032 RMK A01 T00660029  RH  078%=      5-min Rain = 0
KGU1 092304Z 07003KT 07/03 A3032 RMK A01 T00660029  RH  079%=      5-min Rain = 0
KGU1 092305Z 08004KT 07/03 A3032 RMK A01 T00650028  RH  079%=      5-min Rain = 0
KGU1 092306Z 08004KT 07/03 A3032 RMK A01 T00650029  RH  079%=      5-min Rain = 0
KGU1 092307Z 09004KT 06/03 A3032 RMK A01 T00640029  RH  079%=      5-min Rain = 0
KGU1 092308Z 10003KT 06/03 A3032 RMK A01 T00640029  RH  080%=      5-min Rain = 0
KGU1 092309Z 10003KT 06/03 A3032 RMK A01 T00640029  RH  080%=      5-min Rain = 0
KGU1 092310Z 09003KT 06/03 A3032 RMK A01 T00640029  RH  080%=      5-min Rain = 0
KGU1 092311Z 09003KT 06/03 A3032 RMK A01 T00640029  RH  080%=      5-min Rain = 0
KGU1 092312Z 09003KT 06/03 A3032 RMK A01 T00630028  RH  080%=      5-min Rain = 0
KGU1 092313Z 09003KT 06/03 A3032 RMK A01 T00620028  RH  080%=      5-min Rain = 0
KGU1 092314Z 10002KT 06/03 A3032 RMK A01 T00620028  RH  080%=      5-min Rain = 0
KGU1 092315Z 09002KT 06/03 A3032 RMK A01 T00620029  RH  081%=      5-min Rain = 0
KGU1 092316Z 10003KT 06/03 A3032 RMK A01 T00620029  RH  080%=      5-min Rain = 0
KGU1 092317Z 10003KT 06/03 A3032 RMK A01 T00610028  RH  080%=      5-min Rain = 0
KGU1 092318Z 11002KT 06/03 A3032 RMK A01 T00600028  RH  081%=      5-min Rain = 0
KGU1 092319Z 11002KT 06/03 A3032 RMK A01 T00600028  RH  081%=      5-min Rain = 0
KGU1 092320Z 10002KT 06/03 A3032 RMK A01 T00590028  RH  081%=      5-min Rain = 0
KGU1 092321Z 12001KT 06/03 A3032 RMK A01 T00590027  RH  081%=      5-min Rain = 0
KGU1 092322Z 10001KT 06/03 A3032 RMK A01 T00600028  RH  081%=      5-min Rain = 0
KGU1 092323Z 10001KT 06/03 A3032 RMK A01 T00600027  RH  081%=      5-min Rain = 0
KGU1 092324Z 11001KT 06/03 A3032 RMK A01 T00600027  RH  081%=      5-min Rain = 0
KGU1 092325Z 12001KT 06/03 A3032 RMK A01 T00600028  RH  081%=      5-min Rain = 0
KGU1 092326Z 14001KT 06/03 A3032 RMK A01 T00600027  RH  081%=      5-min Rain = 0
KGU1 092327Z 14002KT 06/03 A3032 RMK A01 T00580025  RH  081%=      5-min Rain = 0
KGU1 092328Z 15002KT 06/03 A3032 RMK A01 T00570026  RH  081%=      5-min Rain = 0
KGU1 092329Z 14002KT 06/03 A3032 RMK A01 T00560026  RH  082%=      5-min Rain = 0
KGU1 092330Z 15002KT 06/03 A3032 RMK A01 T00550026  RH  083%=      5-min Rain = 0
KGU1 092331Z 15002KT 05/03 A3032 RMK A01 T00540026  RH  084%=      5-min Rain = 0
KGU1 092332Z 16002KT 05/03 A3032 RMK A01 T00530026  RH  084%=      5-min Rain = 0
KGU1 092333Z 15001KT 05/03 A3032 RMK A01 T00530026  RH  084%=      5-min Rain = 0
KGU1 092334Z 15001KT 05/03 A3032 RMK A01 T00520026  RH  085%=      5-min Rain = 0
KGU1 092335Z 15002KT 05/03 A3032 RMK A01 T00510026  RH  085%=      5-min Rain = 0
KGU1 092336Z 16002KT 05/03 A3032 RMK A01 T00510027  RH  086%=      5-min Rain = 0
KGU1 092337Z 16002KT 05/03 A3032 RMK A01 T00500026  RH  086%=      5-min Rain = 0
KGU1 092338Z 18001KT 05/03 A3032 RMK A01 T00490025  RH  086%=      5-min Rain = 0
KGU1 092339Z 19001KT 05/03 A3032 RMK A01 T00490026  RH  087%=      5-min Rain = 0
KGU1 092340Z 18001KT 05/03 A3032 RMK A01 T00480026  RH  087%=      5-min Rain = 0
KGU1 092341Z 16001KT 05/03 A3032 RMK A01 T00480026  RH  087%=      5-min Rain = 0
KGU1 092342Z 16000KT 05/03 A3032 RMK A01 T00480027  RH  087%=      5-min Rain = 0
KGU1 092343Z 00000KT 05/03 A3032 RMK A01 T00480026  RH  087%=      5-min Rain = 0
KGU1 092344Z 00000KT 05/03 A3032 RMK A01 T00480026  RH  087%=      5-min Rain = 0
KGU1 092345Z 00000KT 05/03 A3032 RMK A01 T00470025  RH  087%=      5-min Rain = 0
KGU1 092346Z 00000KT 05/03 A3032 RMK A01 T00470025  RH  087%=      5-min Rain = 0
KGU1 092347Z 00000KT 05/02 A3032 RMK A01 T00460024  RH  087%=      5-min Rain = 0
KGU1 092348Z 00000KT 05/02 A3032 RMK A01 T00450024  RH  088%=      5-min Rain = 0
KGU1 092349Z 16000KT 05/02 A3032 RMK A01 T00450024  RH  088%=      5-min Rain = 0
KGU1 092350Z 16001KT 05/03 A3032 RMK A01 T00450025  RH  088%=      5-min Rain = 0
KGU1 092351Z 16001KT 05/03 A3032 RMK A01 T00450025  RH  089%=      5-min Rain = 0
KGU1 092352Z 00000KT 05/03 A3032 RMK A01 T00450025  RH  089%=      5-min Rain = 0
KGU1 092353Z 13000KT 05/03 A3032 RMK A01 T00450026  RH  089%=      5-min Rain = 0
KGU1 092354Z 13001KT 05/03 A3032 RMK A01 T00450025  RH  089%=      5-min Rain = 0
KGU1 092355Z 13001KT 04/03 A3032 RMK A01 T00440025  RH  088%=      5-min Rain = 0
KGU1 092356Z 13001KT 04/02 A3032 RMK A01 T00440024  RH  088%=      5-min Rain = 0
KGU1 092357Z 13001KT 04/02 A3032 RMK A01 T00430024  RH  089%=      5-min Rain = 0
KGU1 092358Z 13002KT 04/02 A3032 RMK A01 T00430024  RH  089%=      5-min Rain = 0
KGU1 092359Z 13002KT 04/02 A3032 RMK A01 T00430024  RH  089%=      5-min Rain = 0
KGU1 100000Z 13001KT 04/02 A3032 RMK A01 T00420023  RH  089%=      5-min Rain = 0
KGU1 100001Z 13000KT 04/02 A3032 RMK A01 T00420023  RH  089%=      5-min Rain = 0
KGU1 100002Z 00000KT 04/02 A3033 RMK A01 T00410023  RH  089%=      5-min Rain = 0
KGU1 100003Z 13000KT 04/02 A3033 RMK A01 T00410023  RH  089%=      5-min Rain = 0
KGU1 100004Z 13001KT 04/02 A3033 RMK A01 T00410023  RH  090%=      5-min Rain = 0
KGU1 100005Z 10002KT 04/02 A3033 RMK A01 T00410023  RH  090%=      5-min Rain = 0
KGU1 100006Z 09002KT 04/02 A3033 RMK A01 T00400023  RH  090%=      5-min Rain = 0
KGU1 100007Z 06002KT 04/02 A3033 RMK A01 T00400022  RH  090%=      5-min Rain = 0
KGU1 100008Z 03002KT 04/02 A3033 RMK A01 T00390021  RH  090%=      5-min Rain = 0
KGU1 100009Z 01002KT 04/02 A3033 RMK A01 T00380020  RH  089%=      5-min Rain = 0
KGU1 100010Z 01002KT 04/02 A3033 RMK A01 T00370020  RH  090%=      5-min Rain = 0
KGU1 100011Z 02002KT 04/02 A3033 RMK A01 T00370019  RH  090%=      5-min Rain = 0
KGU1 100012Z 04002KT 04/02 A3033 RMK A01 T00360019  RH  090%=      5-min Rain = 0
KGU1 100013Z 04002KT 04/02 A3033 RMK A01 T00350019  RH  090%=      5-min Rain = 0
KGU1 100014Z 05001KT 04/02 A3033 RMK A01 T00350018  RH  090%=      5-min Rain = 0
KGU1 100015Z 05000KT 03/02 A3032 RMK A01 T00340018  RH  090%=      5-min Rain = 0
KGU1 100016Z 00000KT 03/02 A3032 RMK A01 T00340017  RH  090%=      5-min Rain = 0
KGU1 100017Z 00000KT 03/02 A3032 RMK A01 T00330017  RH  090%=      5-min Rain = 0
KGU1 100018Z 00000KT 03/02 A3032 RMK A01 T00330018  RH  091%=      5-min Rain = 0
KGU1 100019Z 00000KT 03/02 A3032 RMK A01 T00330019  RH  092%=      5-min Rain = 0
KGU1 100020Z 00000KT 03/02 A3033 RMK A01 T00330020  RH  092%=      5-min Rain = 0
KGU1 100021Z 01000KT 03/02 A3033 RMK A01 T00330020  RH  093%=      5-min Rain = 0
KGU1 100022Z 34002KT 03/02 A3033 RMK A01 T00330019  RH  092%=      5-min Rain = 0
KGU1 100023Z 34002KT 03/02 A3033 RMK A01 T00310015  RH  091%=      5-min Rain = 0
KGU1 100024Z 34001KT 03/01 A3033 RMK A01 T00290013  RH  091%=      5-min Rain = 0
KGU1 100025Z 34001KT 03/01 A3033 RMK A01 T00270013  RH  091%=      5-min Rain = 0
KGU1 100026Z 34000KT 03/01 A3033 RMK A01 T00270014  RH  092%=      5-min Rain = 0
KGU1 100027Z 00000KT 03/01 A3033 RMK A01 T00270014  RH  093%=      5-min Rain = 0
KGU1 100028Z 00000KT 03/02 A3033 RMK A01 T00270015  RH  093%=      5-min Rain = 0
KGU1 100029Z 00000KT 03/02 A3033 RMK A01 T00270016  RH  093%=      5-min Rain = 0
KGU1 100030Z 00000KT 03/02 A3033 RMK A01 T00280016  RH  094%=      5-min Rain = 0
KGU1 100031Z 00000KT 03/02 A3033 RMK A01 T00290018  RH  094%=      5-min Rain = 0
KGU1 100032Z 00000KT 03/02 A3033 RMK A01 T00300020  RH  094%=      5-min Rain = 0
KGU1 100033Z 00000KT 03/02 A3033 RMK A01 T00310021  RH  094%=      5-min Rain = 0
KGU1 100034Z 00000KT 03/02 A3033 RMK A01 T00310021  RH  094%=      5-min Rain = 0
KGU1 100035Z 00000KT 03/02 A3033 RMK A01 T00310019  RH  093%=      5-min Rain = 0
KGU1 100036Z 24002KT 03/02 A3033 RMK A01 T00310018  RH  093%=      5-min Rain = 0
KGU1 100037Z 24003KT 03/02 A3033 RMK A01 T00310017  RH  092%=      5-min Rain = 0
KGU1 100038Z 24003KT 03/02 A3033 RMK A01 T00310017  RH  092%=      5-min Rain = 0
KGU1 100039Z 24003KT 03/02 A3033 RMK A01 T00300016  RH  092%=      5-min Rain = 0
KGU1 100040Z 24003KT 03/02 A3033 RMK A01 T00300017  RH  092%=      5-min Rain = 0
KGU1 100041Z 25003KT 03/02 A3033 RMK A01 T00300017  RH  093%=      5-min Rain = 0
KGU1 100042Z 26003KT 03/02 A3033 RMK A01 T00300017  RH  093%=      5-min Rain = 0
KGU1 100043Z 27004KT 03/01 A3033 RMK A01 T00260010  RH  090%=      5-min Rain = 0
KGU1 100044Z 26005KT 02/01 A3033 RMK A01 T00230006  RH  090%=      5-min Rain = 0
KGU1 100045Z 28006KT 02/01 A3033 RMK A01 T00210006  RH  091%=      5-min Rain = 0
KGU1 100046Z 28006KT 02/01 A3033 RMK A01 T00190005  RH  092%=      5-min Rain = 0
KGU1 100047Z 28005KT 02/01 A3033 RMK A01 T00200007  RH  093%=      5-min Rain = 0
KGU1 100048Z 28006KT 02/01 A3033 RMK A01 T00200008  RH  093%=      5-min Rain = 0
KGU1 100049Z 28006KT 02/01 A3033 RMK A01 T00190007  RH  093%=      5-min Rain = 0
KGU1 100050Z 28007KT 02/01 A3033 RMK A01 T00190007  RH  093%=      5-min Rain = 0
KGU1 100051Z 27006KT 02/01 A3033 RMK A01 T00190008  RH  094%=      5-min Rain = 0
KGU1 100052Z 28006KT 02/01 A3033 RMK A01 T00180007  RH  094%=      5-min Rain = 0
KGU1 100053Z 28006KT 02/01 A3033 RMK A01 T00180007  RH  094%=      5-min Rain = 0
KGU1 100054Z 28006KT 02/01 A3033 RMK A01 T00190008  RH  094%=      5-min Rain = 0
KGU1 100055Z 28007KT 02/01 A3033 RMK A01 T00200010  RH  095%=      5-min Rain = 0
KGU1 100056Z 27006KT 02/01 A3033 RMK A01 T00220013  RH  095%=      5-min Rain = 0
KGU1 100057Z 27005KT 02/02 A3033 RMK A01 T00230015  RH  095%=      5-min Rain = 0
KGU1 100058Z 27005KT 03/02 A3033 RMK A01 T00260016  RH  095%=      5-min Rain = 0
KGU1 100059Z 27005KT 03/02 A3033 RMK A01 T00270016  RH  094%=      5-min Rain = 0
KGU1 100100Z 28005KT 03/01 A3033 RMK A01 T00260013  RH  093%=      5-min Rain = 0
KGU1 100101Z 25003KT 03/01 A3033 RMK A01 T00260012  RH  092%=      5-min Rain = 0
KGU1 100102Z 20005KT 03/01 A3033 RMK A01 T00250012  RH  092%=      5-min Rain = 0
KGU1 100103Z 20007KT 03/02 A3033 RMK A01 T00280015  RH  092%=      5-min Rain = 0
KGU1 100104Z 20007KT 04/02 A3033 RMK A01 T00350017  RH  090%=      5-min Rain = 0
KGU1 100105Z 21006KT 04/02 A3033 RMK A01 T00390016  RH  087%=      5-min Rain = 0
KGU1 100106Z 21004KT 04/02 A3033 RMK A01 T00410015  RH  084%=      5-min Rain = 0
KGU1 100107Z 22005KT 04/01 A3033 RMK A01 T00430014  RH  083%=      5-min Rain = 0
KGU1 100108Z 22005KT 04/01 A3033 RMK A01 T00440014  RH  082%=      5-min Rain = 0
KGU1 100109Z 22005KT 05/01 A3033 RMK A01 T00450012  RH  080%=      5-min Rain = 0
KGU1 100110Z 22006KT 05/01 A3033 RMK A01 T00460012  RH  079%=      5-min Rain = 0
KGU1 100111Z 23005KT 05/01 A3033 RMK A01 T00470014  RH  080%=      5-min Rain = 0
KGU1 100112Z 22005KT 05/01 A3033 RMK A01 T00470014  RH  080%=      5-min Rain = 0
KGU1 100113Z 22005KT 05/01 A3033 RMK A01 T00470014  RH  080%=      5-min Rain = 0
KGU1 100114Z 21006KT 05/01 A3033 RMK A01 T00460014  RH  081%=      5-min Rain = 0
KGU1 100115Z 21006KT 05/01 A3033 RMK A01 T00450013  RH  080%=      5-min Rain = 0
KGU1 100116Z 21006KT 05/01 A3033 RMK A01 T00460013  RH  080%=      5-min Rain = 0
KGU1 100117Z 20006KT 05/01 A3033 RMK A01 T00480012  RH  079%=      5-min Rain = 0
KGU1 100118Z 20005KT 05/01 A3033 RMK A01 T00490011  RH  078%=      5-min Rain = 0
KGU1 100119Z 20006KT 05/01 A3033 RMK A01 T00490010  RH  077%=      5-min Rain = 0
KGU1 100120Z 21005KT 05/01 A3033 RMK A01 T00500010  RH  076%=      5-min Rain = 0
KGU1 100121Z 20005KT 05/01 A3034 RMK A01 T00500011  RH  076%=      5-min Rain = 0
KGU1 100122Z 19005KT 05/01 A3034 RMK A01 T00500010  RH  077%=      5-min Rain = 0
KGU1 100123Z 20004KT 05/01 A3034 RMK A01 T00500010  RH  077%=      5-min Rain = 0
KGU1 100124Z 21004KT 05/01 A3034 RMK A01 T00490010  RH  077%=      5-min Rain = 0
KGU1 100125Z 21005KT 05/01 A3034 RMK A01 T00480009  RH  077%=      5-min Rain = 0
KGU1 100126Z 20005KT 05/01 A3034 RMK A01 T00490008  RH  076%=      5-min Rain = 0
KGU1 100127Z 20004KT 05/01 A3034 RMK A01 T00490008  RH  076%=      5-min Rain = 0
KGU1 100128Z 20002KT 05/01 A3034 RMK A01 T00490008  RH  076%=      5-min Rain = 0
KGU1 100129Z 28001KT 05/01 A3034 RMK A01 T00490008  RH  076%=      5-min Rain = 0
KGU1 100130Z 31001KT 05/01 A3034 RMK A01 T00470007  RH  076%=      5-min Rain = 0
KGU1 100131Z 01001KT 05/01 A3034 RMK A01 T00450008  RH  078%=      5-min Rain = 0
KGU1 100132Z 03002KT 04/01 A3034 RMK A01 T00430009  RH  080%=      5-min Rain = 0
KGU1 100133Z 06001KT 04/01 A3034 RMK A01 T00420010  RH  080%=      5-min Rain = 0
KGU1 100134Z 05001KT 04/01 A3034 RMK A01 T00420009  RH  080%=      5-min Rain = 0
KGU1 100135Z 16000KT 04/01 A3034 RMK A01 T00400008  RH  081%=      5-min Rain = 0
KGU1 100136Z 14002KT 04/01 A3034 RMK A01 T00400007  RH  080%=      5-min Rain = 0
KGU1 100137Z 16002KT 04/01 A3034 RMK A01 T00380006  RH  081%=      5-min Rain = 0
KGU1 100138Z 19005KT 04/01 A3034 RMK A01 T00380007  RH  081%=      5-min Rain = 0
KGU1 100139Z 20004KT 04/01 A3034 RMK A01 T00390006  RH  080%=      5-min Rain = 0
KGU1 100140Z 30002KT 04/01 A3034 RMK A01 T00390005  RH  079%=      5-min Rain = 0
KGU1 100141Z 31003KT 04/01 A3034 RMK A01 T00380005  RH  080%=      5-min Rain = 0
KGU1 100142Z 28003KT 04/01 A3034 RMK A01 T00370006  RH  082%=      5-min Rain = 0
KGU1 100143Z 30004KT 04/01 A3034 RMK A01 T00370007  RH  082%=      5-min Rain = 0
KGU1 100144Z 30004KT 04/01 A3034 RMK A01 T00380008  RH  082%=      5-min Rain = 0
KGU1 100145Z 32005KT 04/01 A3034 RMK A01 T00390008  RH  081%=      5-min Rain = 0
KGU1 100146Z 30004KT 04/01 A3034 RMK A01 T00430007  RH  079%=      5-min Rain = 0
KGU1 100147Z 24002KT 04/01 A3034 RMK A01 T00440006  RH  078%=      5-min Rain = 0
KGU1 100148Z 17003KT 05/01 A3034 RMK A01 T00450005  RH  076%=      5-min Rain = 0
KGU1 100149Z 16005KT 05/00 A3034 RMK A01 T00490004  RH  073%=      5-min Rain = 0
KGU1 100150Z 16002KT 05/00 A3034 RMK A01 T00540002  RH  070%=      5-min Rain = 0
KGU1 100151Z 26003KT 06/00 A3034 RMK A01 T00560002  RH  069%=      5-min Rain = 0
KGU1 100152Z 21002KT 06/00 A3034 RMK A01 T00560002  RH  069%=      5-min Rain = 0
KGU1 100153Z 19004KT 05/00 A3034 RMK A01 T00540002  RH  070%=      5-min Rain = 0
KGU1 100154Z 20006KT 05/00 A3034 RMK A01 T00510001  RH  071%=      5-min Rain = 0
KGU1 100155Z 19009KT 05/00 A3033 RMK A01 T00500001  RH  072%=      5-min Rain = 0
KGU1 100156Z 19009KT 05/00 A3034 RMK A01 T00510001  RH  071%=      5-min Rain = 0
KGU1 100157Z 19008KT 05/00 A3034 RMK A01 T00500001  RH  072%=      5-min Rain = 0
KGU1 100158Z 19010KT 05/00 A3034 RMK A01 T00490001  RH  072%=      5-min Rain = 0
KGU1 100159Z 19009KT 05/M01 A3034 RMK A01 T00541011  RH  064%=      5-min Rain = 0
KGU1 100200Z 22005KT 06/M01 A3034 RMK A01 T00601007  RH  063%=      5-min Rain = 0
KGU1 100201Z 20006KT 06/M00 A3034 RMK A01 T00591002  RH  066%=      5-min Rain = 0
KGU1 100202Z 19005KT 06/M00 A3034 RMK A01 T00581001  RH  067%=      5-min Rain = 0
KGU1 100203Z 19005KT 06/M00 A3034 RMK A01 T00571001  RH  067%=      5-min Rain = 0
KGU1 100204Z 19007KT 06/00 A3034 RMK A01 T005500-0  RH  068%=      5-min Rain = 0
KGU1 100205Z 18009KT 06/M00 A3034 RMK A01 T00551001  RH  068%=      5-min Rain = 0
KGU1 100206Z 19007KT 06/M00 A3034 RMK A01 T00561001  RH  067%=      5-min Rain = 0
KGU1 100207Z 19005KT 06/M00 A3034 RMK A01 T00581001  RH  067%=      5-min Rain = 0
KGU1 100208Z 19005KT 06/M00 A3034 RMK A01 T00571001  RH  067%=      5-min Rain = 0
KGU1 100209Z 19003KT 06/M00 A3034 RMK A01 T00561001  RH  068%=      5-min Rain = 0
KGU1 100210Z 17001KT 06/M00 A3034 RMK A01 T00561001  RH  068%=      5-min Rain = 0
KGU1 100211Z 14001KT 06/M00 A3034 RMK A01 T00551001  RH  068%=      5-min Rain = 0
KGU1 100212Z 05002KT 05/M00 A3034 RMK A01 T00521002  RH  069%=      5-min Rain = 0
KGU1 100213Z 12003KT 05/M00 A3034 RMK A01 T00471001  RH  072%=      5-min Rain = 0
KGU1 100214Z 13003KT 04/M00 A3034 RMK A01 T00441001  RH  074%=      5-min Rain = 0
KGU1 100215Z 17003KT 04/M00 A3034 RMK A01 T00431002  RH  073%=      5-min Rain = 0
KGU1 100216Z 18004KT 04/M01 A3034 RMK A01 T00431005  RH  071%=      5-min Rain = 0
KGU1 100217Z 24001KT 05/M00 A3034 RMK A01 T00471003  RH  071%=      5-min Rain = 0
KGU1 100218Z 20002KT 05/M00 A3034 RMK A01 T00471002  RH  072%=      5-min Rain = 0
KGU1 100219Z 17005KT 05/M00 A3034 RMK A01 T00471002  RH  071%=      5-min Rain = 0
KGU1 100220Z 17005KT 05/M00 A3034 RMK A01 T00471002  RH  071%=      5-min Rain = 0
KGU1 100221Z 16002KT 05/M00 A3034 RMK A01 T00461001  RH  072%=      5-min Rain = 0
KGU1 100222Z 03002KT 05/M00 A3034 RMK A01 T00451002  RH  072%=      5-min Rain = 0
KGU1 100223Z 03003KT 04/M00 A3034 RMK A01 T00431002  RH  073%=      5-min Rain = 0
KGU1 100224Z 02003KT 04/M00 A3034 RMK A01 T00411003  RH  074%=      5-min Rain = 0
KGU1 100225Z 01002KT 04/M00 A3035 RMK A01 T00391003  RH  075%=      5-min Rain = 0
KGU1 100226Z 02004KT 04/M00 A3035 RMK A01 T00381004  RH  075%=      5-min Rain = 0
KGU1 100227Z 01005KT 04/M00 A3035 RMK A01 T00371004  RH  075%=      5-min Rain = 0
KGU1 100228Z 01008KT 04/M00 A3035 RMK A01 T00391004  RH  074%=      5-min Rain = 0
KGU1 100229Z 01005KT 05/M00 A3035 RMK A01 T00471003  RH  071%=      5-min Rain = 0
KGU1 100230Z 03004KT 05/M01 A3035 RMK A01 T00531005  RH  067%=      5-min Rain = 0
KGU1 100231Z 04004KT 06/M01 A3035 RMK A01 T00571007  RH  064%=      5-min Rain = 0
KGU1 100232Z 36004KT 06/M00 A3035 RMK A01 T00571004  RH  066%=      5-min Rain = 0
KGU1 100233Z 31002KT 06/M00 A3035 RMK A01 T00561003  RH  066%=      5-min Rain = 0
KGU1 100234Z 33001KT 06/M00 A3035 RMK A01 T00551004  RH  066%=      5-min Rain = 0
KGU1 100235Z 21001KT 06/M00 A3035 RMK A01 T00551004  RH  067%=      5-min Rain = 0
KGU1 100236Z 17000KT 05/M00 A3035 RMK A01 T00541004  RH  067%=      5-min Rain = 0
KGU1 100237Z 14002KT 06/M00 A3035 RMK A01 T00551004  RH  067%=      5-min Rain = 0
KGU1 100238Z 16004KT 06/M00 A3035 RMK A01 T00561003  RH  066%=      5-min Rain = 0
KGU1 100239Z 20002KT 06/M00 A3035 RMK A01 T00581004  RH  065%=      5-min Rain = 0
KGU1 100240Z 10001KT 06/M00 A3035 RMK A01 T00601004  RH  064%=      5-min Rain = 0
KGU1 100241Z 13002KT 06/M00 A3035 RMK A01 T00601004  RH  064%=      5-min Rain = 0
KGU1 100242Z 13002KT 06/M00 A3035 RMK A01 T00601004  RH  064%=      5-min Rain = 0
KGU1 100243Z 14002KT 06/M00 A3035 RMK A01 T00601003  RH  064%=      5-min Rain = 0
KGU1 100244Z 17001KT 06/M00 A3035 RMK A01 T00601003  RH  065%=      5-min Rain = 0
KGU1 100245Z 19003KT 06/M00 A3035 RMK A01 T00581004  RH  065%=      5-min Rain = 0
KGU1 100246Z 22003KT 05/M01 A3035 RMK A01 T00541006  RH  066%=      5-min Rain = 0
KGU1 100247Z 21004KT 05/M01 A3035 RMK A01 T00491006  RH  068%=      5-min Rain = 0
KGU1 100248Z 21004KT 05/M01 A3035 RMK A01 T00471005  RH  069%=      5-min Rain = 0
KGU1 100249Z 21003KT 05/M01 A3035 RMK A01 T00471005  RH  069%=      5-min Rain = 0
KGU1 100250Z 26004KT 05/M01 A3035 RMK A01 T00481006  RH  069%=      5-min Rain = 0
KGU1 100251Z 25003KT 05/M01 A3035 RMK A01 T00461007  RH  069%=      5-min Rain = 0
KGU1 100252Z 24003KT 04/M01 A3035 RMK A01 T00441007  RH  070%=      5-min Rain = 0
KGU1 100253Z 21002KT 04/M01 A3035 RMK A01 T00441006  RH  071%=      5-min Rain = 0
KGU1 100254Z 21002KT 04/M01 A3035 RMK A01 T00441006  RH  071%=      5-min Rain = 0
KGU1 100255Z 22001KT 04/M01 A3035 RMK A01 T00421008  RH  071%=      5-min Rain = 0
KGU1 100256Z 26001KT 04/M01 A3035 RMK A01 T00431007  RH  071%=      5-min Rain = 0
KGU1 100257Z 28002KT 04/M01 A3035 RMK A01 T00441006  RH  071%=      5-min Rain = 0
KGU1 100258Z 29003KT 04/M01 A3035 RMK A01 T00401011  RH  070%=      5-min Rain = 0
KGU1 100259Z 29003KT 03/M01 A3035 RMK A01 T00341011  RH  073%=      5-min Rain = 0
KGU1 100300Z 28003KT 03/M01 A3036 RMK A01 T00311011  RH  075%=      5-min Rain = 0
KGU1 100301Z 28003KT 03/M01 A3036 RMK A01 T00271012  RH  076%=      5-min Rain = 0
KGU1 100302Z 27003KT 03/M01 A3036 RMK A01 T00251011  RH  077%=      5-min Rain = 0
KGU1 100303Z 28002KT 03/M01 A3036 RMK A01 T00261009  RH  078%=      5-min Rain = 0
KGU1 100304Z 28004KT 03/M01 A3036 RMK A01 T00301007  RH  078%=      5-min Rain = 0
KGU1 100305Z 30003KT 03/M01 A3036 RMK A01 T00291010  RH  076%=      5-min Rain = 0
KGU1 100306Z 28003KT 03/M01 A3036 RMK A01 T00271011  RH  077%=      5-min Rain = 0
KGU1 100307Z 27002KT 03/M01 A3036 RMK A01 T00261011  RH  078%=      5-min Rain = 0
KGU1 100308Z 27004KT 03/M01 A3036 RMK A01 T00251010  RH  078%=      5-min Rain = 0
KGU1 100309Z 27004KT 03/M01 A3036 RMK A01 T00261010  RH  078%=      5-min Rain = 0
KGU1 100310Z 29003KT 03/M01 A3036 RMK A01 T00261010  RH  078%=      5-min Rain = 0
KGU1 100311Z 31005KT 02/M01 A3036 RMK A01 T00241013  RH  077%=      5-min Rain = 0
KGU1 100312Z 32005KT 02/M01 A3036 RMK A01 T00221012  RH  079%=      5-min Rain = 0
KGU1 100313Z 32005KT 02/M01 A3036 RMK A01 T00221011  RH  079%=      5-min Rain = 0
KGU1 100314Z 32004KT 02/M01 A3036 RMK A01 T00241010  RH  079%=      5-min Rain = 0
KGU1 100315Z 33003KT 03/M01 A3036 RMK A01 T00271009  RH  078%=      5-min Rain = 0
KGU1 100316Z 33002KT 03/M01 A3036 RMK A01 T00281009  RH  077%=      5-min Rain = 0
KGU1 100317Z 32003KT 03/M01 A3036 RMK A01 T00301009  RH  076%=      5-min Rain = 0
KGU1 100318Z 30005KT 03/M01 A3036 RMK A01 T00291012  RH  075%=      5-min Rain = 0
KGU1 100319Z 29005KT 03/M02 A3036 RMK A01 T00261015  RH  075%=      5-min Rain = 0
KGU1 100320Z 29005KT 03/M02 A3036 RMK A01 T00251015  RH  075%=      5-min Rain = 0
KGU1 100321Z 30006KT 02/M02 A3036 RMK A01 T00241015  RH  076%=      5-min Rain = 0
KGU1 100322Z 29005KT 02/M02 A3036 RMK A01 T00241015  RH  076%=      5-min Rain = 0
KGU1 100323Z 29005KT 02/M02 A3036 RMK A01 T00211016  RH  077%=      5-min Rain = 0
KGU1 100324Z 29005KT 02/M02 A3036 RMK A01 T00191017  RH  077%=      5-min Rain = 0
KGU1 100325Z 29004KT 02/M02 A3036 RMK A01 T00191018  RH  077%=      5-min Rain = 0
KGU1 100326Z 30002KT 02/M02 A3036 RMK A01 T00201018  RH  077%=      5-min Rain = 0
KGU1 100327Z 31001KT 02/M02 A3036 RMK A01 T00221017  RH  076%=      5-min Rain = 0
KGU1 100328Z 25001KT 03/M02 A3036 RMK A01 T00251017  RH  074%=      5-min Rain = 0
KGU1 100329Z 28005KT 03/M02 A3036 RMK A01 T00271017  RH  073%=      5-min Rain = 0
KGU1 100330Z 28004KT 02/M02 A3036 RMK A01 T00241018  RH  074%=      5-min Rain = 0
KGU1 100331Z 28004KT 02/M02 A3036 RMK A01 T00241017  RH  075%=      5-min Rain = 0
KGU1 100332Z 27003KT 03/M02 A3036 RMK A01 T00261017  RH  074%=      5-min Rain = 0
KGU1 100333Z 28004KT 03/M02 A3036 RMK A01 T00251019  RH  073%=      5-min Rain = 0
KGU1 100334Z 28005KT 02/M02 A3036 RMK A01 T00241020  RH  073%=      5-min Rain = 0
KGU1 100335Z 27003KT 02/M02 A3036 RMK A01 T00231020  RH  074%=      5-min Rain = 0
KGU1 100336Z 26005KT 02/M02 A3036 RMK A01 T00221021  RH  074%=      5-min Rain = 0
KGU1 100337Z 27005KT 02/M02 A3036 RMK A01 T00221022  RH  073%=      5-min Rain = 0
KGU1 100338Z 28006KT 02/M02 A3036 RMK A01 T00231021  RH  073%=      5-min Rain = 0
KGU1 100339Z 27006KT 02/M02 A3036 RMK A01 T00211022  RH  074%=      5-min Rain = 0
KGU1 100340Z 27006KT 02/M02 A3036 RMK A01 T00191022  RH  075%=      5-min Rain = 0
KGU1 100341Z 28007KT 02/M02 A3036 RMK A01 T00161022  RH  076%=      5-min Rain = 0
KGU1 100342Z 28007KT 02/M02 A3036 RMK A01 T00151022  RH  077%=      5-min Rain = 0
KGU1 100343Z 28007KT 02/M02 A3036 RMK A01 T00171023  RH  076%=      5-min Rain = 0
KGU1 100344Z 26005KT 02/M02 A3036 RMK A01 T00181023  RH  075%=      5-min Rain = 0
KGU1 100345Z 25006KT 02/M02 A3036 RMK A01 T00211023  RH  073%=      5-min Rain = 0
KGU1 100346Z 26007KT 02/M03 A3036 RMK A01 T00231025  RH  071%=      5-min Rain = 0
KGU1 100347Z 26006KT 02/M03 A3036 RMK A01 T00231026  RH  070%=      5-min Rain = 0
KGU1 100348Z 27006KT 02/M03 A3036 RMK A01 T00231027  RH  070%=      5-min Rain = 0
KGU1 100349Z 26005KT 02/M03 A3036 RMK A01 T00221028  RH  070%=      5-min Rain = 0
KGU1 100350Z 26004KT 02/M03 A3036 RMK A01 T00241030  RH  068%=      5-min Rain = 0
KGU1 100351Z 28003KT 03/M03 A3036 RMK A01 T00271031  RH  066%=      5-min Rain = 0
KGU1 100352Z 28002KT 03/M03 A3036 RMK A01 T00281034  RH  064%=      5-min Rain = 0
KGU1 100353Z 22004KT 03/M04 A3036 RMK A01 T00301036  RH  062%=      5-min Rain = 0
KGU1 100354Z 23004KT 04/M04 A3036 RMK A01 T00351039  RH  059%=      5-min Rain = 0
KGU1 100355Z 21003KT 04/M05 A3036 RMK A01 T00431046  RH  053%=      5-min Rain = 0
KGU1 100356Z 26005KT 05/M05 A3036 RMK A01 T00501047  RH  050%=      5-min Rain = 0
KGU1 100357Z 32002KT 05/M05 A3036 RMK A01 T00541048  RH  048%=      5-min Rain = 0
KGU1 100358Z 35001KT 06/M05 A3036 RMK A01 T00571047  RH  047%=      5-min Rain = 0
KGU1 100359Z 04002KT 06/M04 A3036 RMK A01 T00571043  RH  049%=      5-min Rain = 0
KGU1 100400Z 07002KT 06/M04 A3036 RMK A01 T00571041  RH  049%=      5-min Rain = 0
KGU1 100401Z 12002KT 06/M04 A3036 RMK A01 T00571043  RH  049%=      5-min Rain = 0
KGU1 100402Z 11002KT 06/M04 A3036 RMK A01 T00571040  RH  050%=      5-min Rain = 0
KGU1 100403Z 04005KT 05/M03 A3037 RMK A01 T00521025  RH  058%=      5-min Rain = 0
KGU1 100404Z 04006KT 04/M01 A3037 RMK A01 T00411013  RH  068%=      5-min Rain = 0
KGU1 100405Z 04005KT 03/M01 A3037 RMK A01 T00331007  RH  076%=      5-min Rain = 0
KGU1 100406Z 04005KT 03/M00 A3037 RMK A01 T00281003  RH  081%=      5-min Rain = 0
KGU1 100407Z 04006KT 03/M00 A3037 RMK A01 T00251001  RH  084%=      5-min Rain = 0
KGU1 100408Z 04005KT 02/M00 A3037 RMK A01 T00221001  RH  086%=      5-min Rain = 0
KGU1 100409Z 03006KT 02/00 A3037 RMK A01 T002000-0  RH  088%=      5-min Rain = 0
KGU1 100410Z 05005KT 02/00 A3037 RMK A01 T00200003  RH  090%=      5-min Rain = 0
KGU1 100411Z 06004KT 02/01 A3037 RMK A01 T00190005  RH  091%=      5-min Rain = 0
KGU1 100412Z 05005KT 02/01 A3037 RMK A01 T00200007  RH  092%=      5-min Rain = 0
KGU1 100413Z 05005KT 02/01 A3037 RMK A01 T00200007  RH  092%=      5-min Rain = 0
KGU1 100414Z 05004KT 02/00 A3037 RMK A01 T00170003  RH  091%=      5-min Rain = 0
KGU1 100415Z 02001KT 02/00 A3037 RMK A01 T00150000  RH  091%=      5-min Rain = 0
KGU1 100416Z 03000KT 01/00 A3037 RMK A01 T001400-0  RH  091%=      5-min Rain = 0
KGU1 100417Z 02001KT 01/00 A3037 RMK A01 T001400-0  RH  092%=      5-min Rain = 0
KGU1 100418Z 01001KT 01/00 A3037 RMK A01 T00130000  RH  092%=      5-min Rain = 0
KGU1 100419Z 25000KT 01/00 A3037 RMK A01 T00130001  RH  093%=      5-min Rain = 0
KGU1 100420Z 26001KT 01/00 A3037 RMK A01 T00130002  RH  093%=      5-min Rain = 0
KGU1 100421Z 31001KT 01/01 A3037 RMK A01 T00140005  RH  094%=      5-min Rain = 0
KGU1 100422Z 00003KT 02/01 A3037 RMK A01 T00150006  RH  095%=      5-min Rain = 0
KGU1 100423Z 00002KT 02/01 A3037 RMK A01 T00160008  RH  095%=      5-min Rain = 0
KGU1 100424Z 35001KT 02/01 A3037 RMK A01 T00170009  RH  096%=      5-min Rain = 0
KGU1 100425Z 32002KT 02/01 A3037 RMK A01 T00200012  RH  096%=      5-min Rain = 0
KGU1 100426Z 32002KT 02/01 A3037 RMK A01 T00210014  RH  096%=      5-min Rain = 0
KGU1 100427Z 32001KT 02/01 A3037 RMK A01 T00200013  RH  096%=      5-min Rain = 0
KGU1 100428Z 27002KT 02/01 A3037 RMK A01 T00180010  RH  096%=      5-min Rain = 0
KGU1 100429Z 29002KT 02/01 A3037 RMK A01 T00180009  RH  095%=      5-min Rain = 0
KGU1 100430Z 30002KT 02/01 A3037 RMK A01 T00180009  RH  096%=      5-min Rain = 0
KGU1 100431Z 30002KT 02/01 A3037 RMK A01 T00170008  RH  095%=      5-min Rain = 0
KGU1 100432Z 26003KT 02/01 A3037 RMK A01 T00150007  RH  095%=      5-min Rain = 0
KGU1 100433Z 26004KT 02/01 A3036 RMK A01 T00150006  RH  095%=      5-min Rain = 0
KGU1 100434Z 27002KT 02/01 A3036 RMK A01 T00150007  RH  096%=      5-min Rain = 0
KGU1 100435Z 32000KT 02/01 A3036 RMK A01 T00180010  RH  096%=      5-min Rain = 0
KGU1 100436Z 28003KT 02/01 A3036 RMK A01 T00180011  RH  096%=      5-min Rain = 0
KGU1 100437Z 35003KT 02/01 A3036 RMK A01 T00160007  RH  095%=      5-min Rain = 0
KGU1 100438Z 30004KT 02/01 A3036 RMK A01 T00170008  RH  095%=      5-min Rain = 0
KGU1 100439Z 30003KT 02/01 A3036 RMK A01 T00150005  RH  094%=      5-min Rain = 0
KGU1 100440Z 31002KT 01/00 A3037 RMK A01 T00130001  RH  093%=      5-min Rain = 0
KGU1 100441Z 36002KT 01/00 A3037 RMK A01 T00130002  RH  094%=      5-min Rain = 0
KGU1 100442Z 32002KT 01/00 A3037 RMK A01 T00120002  RH  094%=      5-min Rain = 0
KGU1 100443Z 28002KT 01/00 A3037 RMK A01 T00110000  RH  094%=      5-min Rain = 0
KGU1 100444Z 33001KT 01/M00 A3037 RMK A01 T00101001  RH  094%=      5-min Rain = 0
KGU1 100445Z 31000KT 01/M00 A3037 RMK A01 T00091002  RH  094%=      5-min Rain = 0
KGU1 100446Z 00000KT 01/M00 A3037 RMK A01 T00081002  RH  094%=      5-min Rain = 0
KGU1 100447Z 04001KT 01/M00 A3037 RMK A01 T00081001  RH  094%=      5-min Rain = 0
KGU1 100448Z 02001KT 01/00 A3037 RMK A01 T00090000  RH  095%=      5-min Rain = 0
KGU1 100449Z 02001KT 01/00 A3037 RMK A01 T00100001  RH  095%=      5-min Rain = 0
KGU1 100450Z 36001KT 01/00 A3037 RMK A01 T00090001  RH  095%=      5-min Rain = 0
KGU1 100451Z 03000KT 01/00 A3037 RMK A01 T00090001  RH  095%=      5-min Rain = 0
KGU1 100452Z 04001KT 01/00 A3037 RMK A01 T00090000  RH  095%=      5-min Rain = 0
KGU1 100453Z 06003KT 01/00 A3037 RMK A01 T00110002  RH  095%=      5-min Rain = 0
KGU1 100454Z 06004KT 01/01 A3037 RMK A01 T00130006  RH  096%=      5-min Rain = 0
KGU1 100455Z 08004KT 02/01 A3037 RMK A01 T00150009  RH  097%=      5-min Rain = 0
KGU1 100456Z 08004KT 02/01 A3037 RMK A01 T00160009  RH  097%=      5-min Rain = 0
KGU1 100457Z 08003KT 02/01 A3037 RMK A01 T00160009  RH  096%=      5-min Rain = 0
KGU1 100458Z 06003KT 02/01 A3037 RMK A01 T00160008  RH  096%=      5-min Rain = 0
KGU1 100459Z 03002KT 01/01 A3037 RMK A01 T00140006  RH  096%=      5-min Rain = 0
KGU1 100500Z 03002KT 01/00 A3037 RMK A01 T00130004  RH  095%=      5-min Rain = 0
KGU1 100501Z 04003KT 01/01 A3037 RMK A01 T00130005  RH  095%=      5-min Rain = 0
KGU1 100502Z 03003KT 01/01 A3037 RMK A01 T00140007  RH  096%=      5-min Rain = 0
KGU1 100503Z 02003KT 01/01 A3038 RMK A01 T00140007  RH  096%=      5-min Rain = 0
KGU1 100504Z 02003KT 01/01 A3038 RMK A01 T00140006  RH  096%=      5-min Rain = 0
KGU1 100505Z 03003KT 01/01 A3038 RMK A01 T00140006  RH  096%=      5-min Rain = 0
KGU1 100506Z 01004KT 01/01 A3038 RMK A01 T00130005  RH  096%=      5-min Rain = 0
KGU1 100507Z 00006KT 01/00 A3038 RMK A01 T00120004  RH  095%=      5-min Rain = 0
KGU1 100508Z 01005KT 01/01 A3038 RMK A01 T00130005  RH  096%=      5-min Rain = 0
KGU1 100509Z 02005KT 02/01 A3038 RMK A01 T00150008  RH  097%=      5-min Rain = 0
KGU1 100510Z 03005KT 02/01 A3038 RMK A01 T00150009  RH  097%=      5-min Rain = 0
KGU1 100511Z 03005KT 02/01 A3038 RMK A01 T00150009  RH  097%=      5-min Rain = 0
KGU1 100512Z 02004KT 02/01 A3038 RMK A01 T00160009  RH  097%=      5-min Rain = 0
KGU1 100513Z 35003KT 02/01 A3038 RMK A01 T00160010  RH  097%=      5-min Rain = 0
KGU1 100514Z 32003KT 02/01 A3038 RMK A01 T00150009  RH  097%=      5-min Rain = 0
KGU1 100515Z 32004KT 01/01 A3037 RMK A01 T00140007  RH  096%=      5-min Rain = 0
KGU1 100516Z 32004KT 01/01 A3037 RMK A01 T00130006  RH  096%=      5-min Rain = 0
KGU1 100517Z 30004KT 01/01 A3037 RMK A01 T00130006  RH  096%=      5-min Rain = 0
KGU1 100518Z 31004KT 01/01 A3037 RMK A01 T00140007  RH  096%=      5-min Rain = 0
KGU1 100519Z 32003KT 02/01 A3038 RMK A01 T00150006  RH  095%=      5-min Rain = 0
KGU1 100520Z 33003KT 02/01 A3038 RMK A01 T00170007  RH  094%=      5-min Rain = 0
KGU1 100521Z 34003KT 02/01 A3038 RMK A01 T00200008  RH  093%=      5-min Rain = 0
KGU1 100522Z 01003KT 02/01 A3038 RMK A01 T00210008  RH  092%=      5-min Rain = 0
KGU1 100523Z 01003KT 02/01 A3038 RMK A01 T00210006  RH  091%=      5-min Rain = 0
KGU1 100524Z 02003KT 02/01 A3038 RMK A01 T00210005  RH  090%=      5-min Rain = 0
KGU1 100525Z 02003KT 02/01 A3038 RMK A01 T00210005  RH  090%=      5-min Rain = 0
KGU1 100526Z 02002KT 02/01 A3038 RMK A01 T00220006  RH  090%=      5-min Rain = 0
KGU1 100527Z 03003KT 02/01 A3038 RMK A01 T00210005  RH  090%=      5-min Rain = 0
KGU1 100528Z 03003KT 02/01 A3038 RMK A01 T00210006  RH  091%=      5-min Rain = 0
KGU1 100529Z 02003KT 02/01 A3038 RMK A01 T00210006  RH  091%=      5-min Rain = 0
KGU1 100530Z 01003KT 02/01 A3038 RMK A01 T00210006  RH  091%=      5-min Rain = 0
KGU1 100531Z 02003KT 02/01 A3038 RMK A01 T00210006  RH  091%=      5-min Rain = 0
KGU1 100532Z 02002KT 02/01 A3038 RMK A01 T00200005  RH  091%=      5-min Rain = 0
KGU1 100533Z 02002KT 02/01 A3038 RMK A01 T00200005  RH  091%=      5-min Rain = 0
KGU1 100534Z 02001KT 02/00 A3038 RMK A01 T00190004  RH  091%=      5-min Rain = 0
KGU1 100535Z 00001KT 02/00 A3038 RMK A01 T00180003  RH  091%=      5-min Rain = 0
KGU1 100536Z 36001KT 02/00 A3038 RMK A01 T00170002  RH  091%=      5-min Rain = 0
KGU1 100537Z 32001KT 02/00 A3038 RMK A01 T00160003  RH  092%=      5-min Rain = 0
KGU1 100538Z 29002KT 02/00 A3038 RMK A01 T00150002  RH  092%=      5-min Rain = 0
KGU1 100539Z 29002KT 01/00 A3038 RMK A01 T00140000  RH  092%=      5-min Rain = 0
KGU1 100540Z 30002KT 01/00 A3038 RMK A01 T00130000  RH  092%=      5-min Rain = 0
KGU1 100541Z 30002KT 01/00 A3038 RMK A01 T00140001  RH  093%=      5-min Rain = 0
KGU1 100542Z 30003KT 01/00 A3038 RMK A01 T00140002  RH  093%=      5-min Rain = 0
KGU1 100543Z 29003KT 01/00 A3038 RMK A01 T00130001  RH  093%=      5-min Rain = 0
KGU1 100544Z 29002KT 01/M00 A3038 RMK A01 T00121001  RH  092%=      5-min Rain = 0
KGU1 100545Z 30002KT 01/00 A3038 RMK A01 T00120001  RH  093%=      5-min Rain = 0
KGU1 100546Z 31001KT 01/00 A3038 RMK A01 T00130003  RH  094%=      5-min Rain = 0
KGU1 100547Z 33001KT 02/01 A3038 RMK A01 T00150005  RH  094%=      5-min Rain = 0
KGU1 100548Z 30001KT 01/00 A3038 RMK A01 T00130003  RH  094%=      5-min Rain = 0
KGU1 100549Z 28004KT 01/00 A3038 RMK A01 T00120001  RH  093%=      5-min Rain = 0
KGU1 100550Z 30003KT 01/M00 A3038 RMK A01 T00101003  RH  092%=      5-min Rain = 0
KGU1 100551Z 31004KT 01/M01 A3038 RMK A01 T00081005  RH  092%=      5-min Rain = 0
KGU1 100552Z 31003KT 01/M01 A3038 RMK A01 T00071007  RH  092%=      5-min Rain = 0
KGU1 100553Z 31004KT 01/M01 A3038 RMK A01 T00051008  RH  092%=      5-min Rain = 0
KGU1 100554Z 32002KT 01/M01 A3038 RMK A01 T00051009  RH  091%=      5-min Rain = 0
KGU1 100555Z 33002KT 01/M01 A3038 RMK A01 T00051010  RH  091%=      5-min Rain = 0
KGU1 100556Z 33002KT 00/M01 A3038 RMK A01 T00041010  RH  091%=      5-min Rain = 0
KGU1 100557Z 33002KT 01/M01 A3038 RMK A01 T00051009  RH  092%=      5-min Rain = 0
KGU1 100558Z 30002KT 01/M01 A3038 RMK A01 T00051008  RH  092%=      5-min Rain = 0
KGU1 100559Z 31002KT 00/M01 A3038 RMK A01 T00041010  RH  091%=      5-min Rain = 0

Page generated in 7.2299 seconds.